<?xml version="1.0" encoding="UTF-8" standalone="no" ?>
<gpx xmlns="http://www.topografix.com/GPX/1/1" xmlns:xsi="http://www.w3.org/2001/XMLSchema-instance" xsi:schemaLocation="http://www.topografix.com/GPX/1/1 http://www.topografix.com/GPX/1/1/gpx.xsd" version="1.1" creator="VisuGPX - https://www.visugpx.com">
  <metadata>
    <name>14523499-Parcours de Ifs-Forêt de Cinglais 70 Km</name>
  </metadata>
  <trk>
    <name><![CDATA[14523499-Parcours de Ifs-Forêt de Cinglais 70 Km]]></name>
    <trkseg>
      <trkpt lat="49.14669" lon="-0.34">
        <ele>34</ele>
        <time>2022-04-06T10:31:56Z</time>
      </trkpt>
      <trkpt lat="49.147" lon="-0.33968">
        <ele>33</ele>
        <time>2022-04-06T10:32:05Z</time>
      </trkpt>
      <trkpt lat="49.14714" lon="-0.33964">
        <ele>33</ele>
        <time>2022-04-06T10:32:08Z</time>
      </trkpt>
      <trkpt lat="49.14834" lon="-0.34038">
        <ele>29</ele>
        <time>2022-04-06T10:32:38Z</time>
      </trkpt>
      <trkpt lat="49.1486" lon="-0.34022">
        <ele>28</ele>
        <time>2022-04-06T10:32:45Z</time>
      </trkpt>
      <trkpt lat="49.14875" lon="-0.34049">
        <ele>27</ele>
        <time>2022-04-06T10:32:50Z</time>
      </trkpt>
      <trkpt lat="49.14867" lon="-0.34078">
        <ele>27</ele>
        <time>2022-04-06T10:32:55Z</time>
      </trkpt>
      <trkpt lat="49.14856" lon="-0.34085">
        <ele>28</ele>
        <time>2022-04-06T10:32:58Z</time>
      </trkpt>
      <trkpt lat="49.14849" lon="-0.34208">
        <ele>24</ele>
        <time>2022-04-06T10:33:17Z</time>
      </trkpt>
      <trkpt lat="49.14842" lon="-0.34228">
        <ele>24</ele>
        <time>2022-04-06T10:33:20Z</time>
      </trkpt>
      <trkpt lat="49.1485" lon="-0.34246">
        <ele>23</ele>
        <time>2022-04-06T10:33:23Z</time>
      </trkpt>
      <trkpt lat="49.14855" lon="-0.34428">
        <ele>22</ele>
        <time>2022-04-06T10:33:51Z</time>
      </trkpt>
      <trkpt lat="49.14861" lon="-0.34497">
        <ele>22</ele>
        <time>2022-04-06T10:34:02Z</time>
      </trkpt>
      <trkpt lat="49.14859" lon="-0.34528">
        <ele>22</ele>
        <time>2022-04-06T10:34:07Z</time>
      </trkpt>
      <trkpt lat="49.1485" lon="-0.34539">
        <ele>22</ele>
        <time>2022-04-06T10:34:09Z</time>
      </trkpt>
      <trkpt lat="49.14737" lon="-0.34585">
        <ele>22</ele>
        <time>2022-04-06T10:34:37Z</time>
      </trkpt>
      <trkpt lat="49.14728" lon="-0.34583">
        <ele>22</ele>
        <time>2022-04-06T10:34:39Z</time>
      </trkpt>
      <trkpt lat="49.14718" lon="-0.34609">
        <ele>21</ele>
        <time>2022-04-06T10:34:43Z</time>
      </trkpt>
      <trkpt lat="49.14693" lon="-0.34601">
        <ele>21</ele>
        <time>2022-04-06T10:34:49Z</time>
      </trkpt>
      <trkpt lat="49.14555" lon="-0.34671">
        <ele>24</ele>
        <time>2022-04-06T10:35:23Z</time>
      </trkpt>
      <trkpt lat="49.14613" lon="-0.34924">
        <ele>24</ele>
        <time>2022-04-06T10:36:04Z</time>
      </trkpt>
      <trkpt lat="49.14672" lon="-0.35231">
        <ele>22</ele>
        <time>2022-04-06T10:36:53Z</time>
      </trkpt>
      <trkpt lat="49.14651" lon="-0.35364">
        <ele>24</ele>
        <time>2022-04-06T10:37:14Z</time>
      </trkpt>
      <trkpt lat="49.14665" lon="-0.35544">
        <ele>25</ele>
        <time>2022-04-06T10:37:42Z</time>
      </trkpt>
      <trkpt lat="49.14635" lon="-0.35736">
        <ele>26</ele>
        <time>2022-04-06T10:38:12Z</time>
      </trkpt>
      <trkpt lat="49.14534" lon="-0.35915">
        <ele>32</ele>
        <time>2022-04-06T10:38:48Z</time>
      </trkpt>
      <trkpt lat="49.14368" lon="-0.36087">
        <ele>36</ele>
        <time>2022-04-06T10:39:35Z</time>
      </trkpt>
      <trkpt lat="49.14296" lon="-0.36207">
        <ele>38</ele>
        <time>2022-04-06T10:40:00Z</time>
      </trkpt>
      <trkpt lat="49.1419" lon="-0.36134">
        <ele>37</ele>
        <time>2022-04-06T10:40:27Z</time>
      </trkpt>
      <trkpt lat="49.14078" lon="-0.36173">
        <ele>39</ele>
        <time>2022-04-06T10:40:54Z</time>
      </trkpt>
      <trkpt lat="49.1412" lon="-0.36477">
        <ele>42</ele>
        <time>2022-04-06T10:41:41Z</time>
      </trkpt>
      <trkpt lat="49.14181" lon="-0.36709">
        <ele>42</ele>
        <time>2022-04-06T10:42:19Z</time>
      </trkpt>
      <trkpt lat="49.14196" lon="-0.36716">
        <ele>41</ele>
        <time>2022-04-06T10:42:23Z</time>
      </trkpt>
      <trkpt lat="49.14209" lon="-0.36742">
        <ele>41</ele>
        <time>2022-04-06T10:42:28Z</time>
      </trkpt>
      <trkpt lat="49.14195" lon="-0.36773">
        <ele>42</ele>
        <time>2022-04-06T10:42:34Z</time>
      </trkpt>
      <trkpt lat="49.14184" lon="-0.36777">
        <ele>42</ele>
        <time>2022-04-06T10:42:36Z</time>
      </trkpt>
      <trkpt lat="49.1415" lon="-0.36823">
        <ele>43</ele>
        <time>2022-04-06T10:42:47Z</time>
      </trkpt>
      <trkpt lat="49.14024" lon="-0.37015">
        <ele>46</ele>
        <time>2022-04-06T10:43:29Z</time>
      </trkpt>
      <trkpt lat="49.13885" lon="-0.37229">
        <ele>51</ele>
        <time>2022-04-06T10:44:15Z</time>
      </trkpt>
      <trkpt lat="49.13768" lon="-0.37416">
        <ele>53</ele>
        <time>2022-04-06T10:44:54Z</time>
      </trkpt>
      <trkpt lat="49.13772" lon="-0.37446">
        <ele>52</ele>
        <time>2022-04-06T10:44:59Z</time>
      </trkpt>
      <trkpt lat="49.13772" lon="-0.3748">
        <ele>52</ele>
        <time>2022-04-06T10:45:04Z</time>
      </trkpt>
      <trkpt lat="49.13807" lon="-0.37527">
        <ele>52</ele>
        <time>2022-04-06T10:45:15Z</time>
      </trkpt>
      <trkpt lat="49.13835" lon="-0.3754">
        <ele>51</ele>
        <time>2022-04-06T10:45:22Z</time>
      </trkpt>
      <trkpt lat="49.1385" lon="-0.3758">
        <ele>52</ele>
        <time>2022-04-06T10:45:29Z</time>
      </trkpt>
      <trkpt lat="49.13831" lon="-0.37616">
        <ele>52</ele>
        <time>2022-04-06T10:45:36Z</time>
      </trkpt>
      <trkpt lat="49.13813" lon="-0.37628">
        <ele>52</ele>
        <time>2022-04-06T10:45:40Z</time>
      </trkpt>
      <trkpt lat="49.13748" lon="-0.37607">
        <ele>52</ele>
        <time>2022-04-06T10:45:56Z</time>
      </trkpt>
      <trkpt lat="49.1368" lon="-0.37636">
        <ele>53</ele>
        <time>2022-04-06T10:46:12Z</time>
      </trkpt>
      <trkpt lat="49.1367" lon="-0.37684">
        <ele>52</ele>
        <time>2022-04-06T10:46:20Z</time>
      </trkpt>
      <trkpt lat="49.13683" lon="-0.37748">
        <ele>49</ele>
        <time>2022-04-06T10:46:30Z</time>
      </trkpt>
      <trkpt lat="49.13678" lon="-0.37817">
        <ele>48</ele>
        <time>2022-04-06T10:46:41Z</time>
      </trkpt>
      <trkpt lat="49.13681" lon="-0.38062">
        <ele>38</ele>
        <time>2022-04-06T10:47:18Z</time>
      </trkpt>
      <trkpt lat="49.13688" lon="-0.38235">
        <ele>31</ele>
        <time>2022-04-06T10:47:45Z</time>
      </trkpt>
      <trkpt lat="49.13704" lon="-0.38466">
        <ele>25</ele>
        <time>2022-04-06T10:48:20Z</time>
      </trkpt>
      <trkpt lat="49.1374" lon="-0.38521">
        <ele>23</ele>
        <time>2022-04-06T10:48:32Z</time>
      </trkpt>
      <trkpt lat="49.13738" lon="-0.38566">
        <ele>23</ele>
        <time>2022-04-06T10:48:39Z</time>
      </trkpt>
      <trkpt lat="49.13552" lon="-0.38583">
        <ele>23</ele>
        <time>2022-04-06T10:49:23Z</time>
      </trkpt>
      <trkpt lat="49.13361" lon="-0.38595">
        <ele>25</ele>
        <time>2022-04-06T10:50:07Z</time>
      </trkpt>
      <trkpt lat="49.1322" lon="-0.38613">
        <ele>26</ele>
        <time>2022-04-06T10:50:40Z</time>
      </trkpt>
      <trkpt lat="49.13034" lon="-0.38654">
        <ele>27</ele>
        <time>2022-04-06T10:51:24Z</time>
      </trkpt>
      <trkpt lat="49.12907" lon="-0.38701">
        <ele>28</ele>
        <time>2022-04-06T10:51:55Z</time>
      </trkpt>
      <trkpt lat="49.12713" lon="-0.38706">
        <ele>28</ele>
        <time>2022-04-06T10:52:40Z</time>
      </trkpt>
      <trkpt lat="49.1263" lon="-0.38715">
        <ele>29</ele>
        <time>2022-04-06T10:53:00Z</time>
      </trkpt>
      <trkpt lat="49.12591" lon="-0.38971">
        <ele>25</ele>
        <time>2022-04-06T10:53:40Z</time>
      </trkpt>
      <trkpt lat="49.1252" lon="-0.38924">
        <ele>25</ele>
        <time>2022-04-06T10:53:58Z</time>
      </trkpt>
      <trkpt lat="49.12433" lon="-0.3888">
        <ele>27</ele>
        <time>2022-04-06T10:54:19Z</time>
      </trkpt>
      <trkpt lat="49.12356" lon="-0.38856">
        <ele>27</ele>
        <time>2022-04-06T10:54:38Z</time>
      </trkpt>
      <trkpt lat="49.12247" lon="-0.38786">
        <ele>24</ele>
        <time>2022-04-06T10:55:05Z</time>
      </trkpt>
      <trkpt lat="49.12113" lon="-0.38658">
        <ele>28</ele>
        <time>2022-04-06T10:55:42Z</time>
      </trkpt>
      <trkpt lat="49.11918" lon="-0.38489">
        <ele>34</ele>
        <time>2022-04-06T10:56:34Z</time>
      </trkpt>
      <trkpt lat="49.11874" lon="-0.38505">
        <ele>33</ele>
        <time>2022-04-06T10:56:45Z</time>
      </trkpt>
      <trkpt lat="49.1184" lon="-0.38523">
        <ele>30</ele>
        <time>2022-04-06T10:56:53Z</time>
      </trkpt>
      <trkpt lat="49.11796" lon="-0.38507">
        <ele>27</ele>
        <time>2022-04-06T10:57:04Z</time>
      </trkpt>
      <trkpt lat="49.11755" lon="-0.38483">
        <ele>25</ele>
        <time>2022-04-06T10:57:14Z</time>
      </trkpt>
      <trkpt lat="49.11659" lon="-0.38401">
        <ele>19</ele>
        <time>2022-04-06T10:57:40Z</time>
      </trkpt>
      <trkpt lat="49.11643" lon="-0.38396">
        <ele>19</ele>
        <time>2022-04-06T10:57:44Z</time>
      </trkpt>
      <trkpt lat="49.11623" lon="-0.3837">
        <ele>20</ele>
        <time>2022-04-06T10:57:50Z</time>
      </trkpt>
      <trkpt lat="49.11524" lon="-0.38353">
        <ele>21</ele>
        <time>2022-04-06T10:58:13Z</time>
      </trkpt>
      <trkpt lat="49.11415" lon="-0.38349">
        <ele>21</ele>
        <time>2022-04-06T10:58:39Z</time>
      </trkpt>
      <trkpt lat="49.11324" lon="-0.38333">
        <ele>17</ele>
        <time>2022-04-06T10:59:00Z</time>
      </trkpt>
      <trkpt lat="49.11245" lon="-0.38299">
        <ele>17</ele>
        <time>2022-04-06T10:59:19Z</time>
      </trkpt>
      <trkpt lat="49.11151" lon="-0.38216">
        <ele>25</ele>
        <time>2022-04-06T10:59:44Z</time>
      </trkpt>
      <trkpt lat="49.11049" lon="-0.38185">
        <ele>22</ele>
        <time>2022-04-06T11:00:09Z</time>
      </trkpt>
      <trkpt lat="49.10845" lon="-0.38225">
        <ele>17</ele>
        <time>2022-04-06T11:00:57Z</time>
      </trkpt>
      <trkpt lat="49.10813" lon="-0.38218">
        <ele>20</ele>
        <time>2022-04-06T11:01:04Z</time>
      </trkpt>
      <trkpt lat="49.10802" lon="-0.3823">
        <ele>20</ele>
        <time>2022-04-06T11:01:08Z</time>
      </trkpt>
      <trkpt lat="49.10791" lon="-0.38296">
        <ele>18</ele>
        <time>2022-04-06T11:01:18Z</time>
      </trkpt>
      <trkpt lat="49.10762" lon="-0.38338">
        <ele>18</ele>
        <time>2022-04-06T11:01:27Z</time>
      </trkpt>
      <trkpt lat="49.10663" lon="-0.38364">
        <ele>17</ele>
        <time>2022-04-06T11:01:51Z</time>
      </trkpt>
      <trkpt lat="49.10596" lon="-0.38357">
        <ele>15</ele>
        <time>2022-04-06T11:02:06Z</time>
      </trkpt>
      <trkpt lat="49.10523" lon="-0.38375">
        <ele>16</ele>
        <time>2022-04-06T11:02:24Z</time>
      </trkpt>
      <trkpt lat="49.10408" lon="-0.38372">
        <ele>17</ele>
        <time>2022-04-06T11:02:51Z</time>
      </trkpt>
      <trkpt lat="49.10329" lon="-0.38363">
        <ele>23</ele>
        <time>2022-04-06T11:03:09Z</time>
      </trkpt>
      <trkpt lat="49.10268" lon="-0.38374">
        <ele>24</ele>
        <time>2022-04-06T11:03:23Z</time>
      </trkpt>
      <trkpt lat="49.10172" lon="-0.38544">
        <ele>19</ele>
        <time>2022-04-06T11:03:58Z</time>
      </trkpt>
      <trkpt lat="49.10097" lon="-0.38625">
        <ele>18</ele>
        <time>2022-04-06T11:04:19Z</time>
      </trkpt>
      <trkpt lat="49.09994" lon="-0.38753">
        <ele>17</ele>
        <time>2022-04-06T11:04:50Z</time>
      </trkpt>
      <trkpt lat="49.09887" lon="-0.3888">
        <ele>21</ele>
        <time>2022-04-06T11:05:22Z</time>
      </trkpt>
      <trkpt lat="49.09812" lon="-0.38991">
        <ele>19</ele>
        <time>2022-04-06T11:05:46Z</time>
      </trkpt>
      <trkpt lat="49.09758" lon="-0.39083">
        <ele>16</ele>
        <time>2022-04-06T11:06:05Z</time>
      </trkpt>
      <trkpt lat="49.09701" lon="-0.39155">
        <ele>13</ele>
        <time>2022-04-06T11:06:22Z</time>
      </trkpt>
      <trkpt lat="49.09566" lon="-0.39171">
        <ele>15</ele>
        <time>2022-04-06T11:06:54Z</time>
      </trkpt>
      <trkpt lat="49.09438" lon="-0.39112">
        <ele>19</ele>
        <time>2022-04-06T11:07:25Z</time>
      </trkpt>
      <trkpt lat="49.0933" lon="-0.39107">
        <ele>18</ele>
        <time>2022-04-06T11:07:50Z</time>
      </trkpt>
      <trkpt lat="49.09283" lon="-0.39173">
        <ele>16</ele>
        <time>2022-04-06T11:08:05Z</time>
      </trkpt>
      <trkpt lat="49.09227" lon="-0.39214">
        <ele>18</ele>
        <time>2022-04-06T11:08:20Z</time>
      </trkpt>
      <trkpt lat="49.09177" lon="-0.39246">
        <ele>21</ele>
        <time>2022-04-06T11:08:33Z</time>
      </trkpt>
      <trkpt lat="49.09096" lon="-0.3927">
        <ele>21</ele>
        <time>2022-04-06T11:08:52Z</time>
      </trkpt>
      <trkpt lat="49.09063" lon="-0.39256">
        <ele>22</ele>
        <time>2022-04-06T11:09:00Z</time>
      </trkpt>
      <trkpt lat="49.08994" lon="-0.39263">
        <ele>18</ele>
        <time>2022-04-06T11:09:16Z</time>
      </trkpt>
      <trkpt lat="49.08862" lon="-0.39104">
        <ele>21</ele>
        <time>2022-04-06T11:09:55Z</time>
      </trkpt>
      <trkpt lat="49.08817" lon="-0.38974">
        <ele>22</ele>
        <time>2022-04-06T11:10:18Z</time>
      </trkpt>
      <trkpt lat="49.08812" lon="-0.38792">
        <ele>26</ele>
        <time>2022-04-06T11:10:46Z</time>
      </trkpt>
      <trkpt lat="49.08784" lon="-0.38702">
        <ele>26</ele>
        <time>2022-04-06T11:11:01Z</time>
      </trkpt>
      <trkpt lat="49.08703" lon="-0.38575">
        <ele>21</ele>
        <time>2022-04-06T11:11:28Z</time>
      </trkpt>
      <trkpt lat="49.08599" lon="-0.38451">
        <ele>20</ele>
        <time>2022-04-06T11:11:59Z</time>
      </trkpt>
      <trkpt lat="49.08579" lon="-0.38419">
        <ele>18</ele>
        <time>2022-04-06T11:12:05Z</time>
      </trkpt>
      <trkpt lat="49.08568" lon="-0.38352">
        <ele>20</ele>
        <time>2022-04-06T11:12:16Z</time>
      </trkpt>
      <trkpt lat="49.08581" lon="-0.38264">
        <ele>23</ele>
        <time>2022-04-06T11:12:30Z</time>
      </trkpt>
      <trkpt lat="49.08605" lon="-0.38176">
        <ele>24</ele>
        <time>2022-04-06T11:12:44Z</time>
      </trkpt>
      <trkpt lat="49.08631" lon="-0.38011">
        <ele>30</ele>
        <time>2022-04-06T11:13:10Z</time>
      </trkpt>
      <trkpt lat="49.08618" lon="-0.37907">
        <ele>28</ele>
        <time>2022-04-06T11:13:27Z</time>
      </trkpt>
      <trkpt lat="49.08608" lon="-0.37914">
        <ele>26</ele>
        <time>2022-04-06T11:13:29Z</time>
      </trkpt>
      <trkpt lat="49.08588" lon="-0.37942">
        <ele>21</ele>
        <time>2022-04-06T11:13:35Z</time>
      </trkpt>
      <trkpt lat="49.08553" lon="-0.37984">
        <ele>19</ele>
        <time>2022-04-06T11:13:46Z</time>
      </trkpt>
      <trkpt lat="49.08481" lon="-0.38031">
        <ele>21</ele>
        <time>2022-04-06T11:14:04Z</time>
      </trkpt>
      <trkpt lat="49.08381" lon="-0.38091">
        <ele>27</ele>
        <time>2022-04-06T11:14:29Z</time>
      </trkpt>
      <trkpt lat="49.08378" lon="-0.38186">
        <ele>25</ele>
        <time>2022-04-06T11:14:44Z</time>
      </trkpt>
      <trkpt lat="49.08402" lon="-0.38303">
        <ele>23</ele>
        <time>2022-04-06T11:15:03Z</time>
      </trkpt>
      <trkpt lat="49.08414" lon="-0.38414">
        <ele>26</ele>
        <time>2022-04-06T11:15:20Z</time>
      </trkpt>
      <trkpt lat="49.08372" lon="-0.38518">
        <ele>32</ele>
        <time>2022-04-06T11:15:38Z</time>
      </trkpt>
      <trkpt lat="49.08362" lon="-0.38579">
        <ele>37</ele>
        <time>2022-04-06T11:15:48Z</time>
      </trkpt>
      <trkpt lat="49.08368" lon="-0.38632">
        <ele>39</ele>
        <time>2022-04-06T11:15:56Z</time>
      </trkpt>
      <trkpt lat="49.08501" lon="-0.38946">
        <ele>37</ele>
        <time>2022-04-06T11:16:53Z</time>
      </trkpt>
      <trkpt lat="49.08489" lon="-0.39004">
        <ele>36</ele>
        <time>2022-04-06T11:17:03Z</time>
      </trkpt>
      <trkpt lat="49.08487" lon="-0.39055">
        <ele>35</ele>
        <time>2022-04-06T11:17:11Z</time>
      </trkpt>
      <trkpt lat="49.08501" lon="-0.39089">
        <ele>34</ele>
        <time>2022-04-06T11:17:17Z</time>
      </trkpt>
      <trkpt lat="49.0846" lon="-0.39201">
        <ele>38</ele>
        <time>2022-04-06T11:17:36Z</time>
      </trkpt>
      <trkpt lat="49.08463" lon="-0.39268">
        <ele>39</ele>
        <time>2022-04-06T11:17:47Z</time>
      </trkpt>
      <trkpt lat="49.08436" lon="-0.3929">
        <ele>38</ele>
        <time>2022-04-06T11:17:54Z</time>
      </trkpt>
      <trkpt lat="49.08343" lon="-0.39393">
        <ele>39</ele>
        <time>2022-04-06T11:18:21Z</time>
      </trkpt>
      <trkpt lat="49.08286" lon="-0.39476">
        <ele>42</ele>
        <time>2022-04-06T11:18:39Z</time>
      </trkpt>
      <trkpt lat="49.08252" lon="-0.39507">
        <ele>41</ele>
        <time>2022-04-06T11:18:48Z</time>
      </trkpt>
      <trkpt lat="49.08233" lon="-0.39531">
        <ele>43</ele>
        <time>2022-04-06T11:18:54Z</time>
      </trkpt>
      <trkpt lat="49.0819" lon="-0.39604">
        <ele>45</ele>
        <time>2022-04-06T11:19:09Z</time>
      </trkpt>
      <trkpt lat="49.08146" lon="-0.39668">
        <ele>45</ele>
        <time>2022-04-06T11:19:23Z</time>
      </trkpt>
      <trkpt lat="49.0809" lon="-0.39823">
        <ele>49</ele>
        <time>2022-04-06T11:19:50Z</time>
      </trkpt>
      <trkpt lat="49.08062" lon="-0.39868">
        <ele>51</ele>
        <time>2022-04-06T11:20:00Z</time>
      </trkpt>
      <trkpt lat="49.0805" lon="-0.39875">
        <ele>51</ele>
        <time>2022-04-06T11:20:03Z</time>
      </trkpt>
      <trkpt lat="49.08057" lon="-0.39916">
        <ele>52</ele>
        <time>2022-04-06T11:20:09Z</time>
      </trkpt>
      <trkpt lat="49.08033" lon="-0.40066">
        <ele>58</ele>
        <time>2022-04-06T11:20:33Z</time>
      </trkpt>
      <trkpt lat="49.07942" lon="-0.4017">
        <ele>62</ele>
        <time>2022-04-06T11:20:59Z</time>
      </trkpt>
      <trkpt lat="49.07881" lon="-0.40213">
        <ele>62</ele>
        <time>2022-04-06T11:21:15Z</time>
      </trkpt>
      <trkpt lat="49.07953" lon="-0.40472">
        <ele>74</ele>
        <time>2022-04-06T11:21:58Z</time>
      </trkpt>
      <trkpt lat="49.07982" lon="-0.4046">
        <ele>74</ele>
        <time>2022-04-06T11:22:05Z</time>
      </trkpt>
      <trkpt lat="49.08044" lon="-0.40812">
        <ele>76</ele>
        <time>2022-04-06T11:23:01Z</time>
      </trkpt>
      <trkpt lat="49.08073" lon="-0.40996">
        <ele>70</ele>
        <time>2022-04-06T11:23:30Z</time>
      </trkpt>
      <trkpt lat="49.07699" lon="-0.41139">
        <ele>77</ele>
        <time>2022-04-06T11:25:00Z</time>
      </trkpt>
      <trkpt lat="49.07562" lon="-0.41199">
        <ele>78</ele>
        <time>2022-04-06T11:25:33Z</time>
      </trkpt>
      <trkpt lat="49.072" lon="-0.41345">
        <ele>82</ele>
        <time>2022-04-06T11:27:01Z</time>
      </trkpt>
      <trkpt lat="49.06879" lon="-0.41416">
        <ele>85</ele>
        <time>2022-04-06T11:28:16Z</time>
      </trkpt>
      <trkpt lat="49.06728" lon="-0.41415">
        <ele>88</ele>
        <time>2022-04-06T11:28:52Z</time>
      </trkpt>
      <trkpt lat="49.066" lon="-0.41399">
        <ele>90</ele>
        <time>2022-04-06T11:29:22Z</time>
      </trkpt>
      <trkpt lat="49.06493" lon="-0.41558">
        <ele>88</ele>
        <time>2022-04-06T11:29:57Z</time>
      </trkpt>
      <trkpt lat="49.0642" lon="-0.41759">
        <ele>88</ele>
        <time>2022-04-06T11:30:32Z</time>
      </trkpt>
      <trkpt lat="49.0637" lon="-0.41967">
        <ele>86</ele>
        <time>2022-04-06T11:31:06Z</time>
      </trkpt>
      <trkpt lat="49.06363" lon="-0.42043">
        <ele>86</ele>
        <time>2022-04-06T11:31:17Z</time>
      </trkpt>
      <trkpt lat="49.06351" lon="-0.42131">
        <ele>85</ele>
        <time>2022-04-06T11:31:31Z</time>
      </trkpt>
      <trkpt lat="49.06269" lon="-0.42179">
        <ele>87</ele>
        <time>2022-04-06T11:31:52Z</time>
      </trkpt>
      <trkpt lat="49.06218" lon="-0.42197">
        <ele>89</ele>
        <time>2022-04-06T11:32:04Z</time>
      </trkpt>
      <trkpt lat="49.06145" lon="-0.42201">
        <ele>91</ele>
        <time>2022-04-06T11:32:21Z</time>
      </trkpt>
      <trkpt lat="49.06129" lon="-0.42289">
        <ele>89</ele>
        <time>2022-04-06T11:32:35Z</time>
      </trkpt>
      <trkpt lat="49.06084" lon="-0.42344">
        <ele>90</ele>
        <time>2022-04-06T11:32:48Z</time>
      </trkpt>
      <trkpt lat="49.0604" lon="-0.42469">
        <ele>89</ele>
        <time>2022-04-06T11:33:10Z</time>
      </trkpt>
      <trkpt lat="49.06012" lon="-0.4259">
        <ele>89</ele>
        <time>2022-04-06T11:33:30Z</time>
      </trkpt>
      <trkpt lat="49.05952" lon="-0.42734">
        <ele>88</ele>
        <time>2022-04-06T11:33:56Z</time>
      </trkpt>
      <trkpt lat="49.05922" lon="-0.42842">
        <ele>87</ele>
        <time>2022-04-06T11:34:14Z</time>
      </trkpt>
      <trkpt lat="49.06172" lon="-0.42914">
        <ele>82</ele>
        <time>2022-04-06T11:35:13Z</time>
      </trkpt>
      <trkpt lat="49.06209" lon="-0.42954">
        <ele>81</ele>
        <time>2022-04-06T11:35:24Z</time>
      </trkpt>
      <trkpt lat="49.06189" lon="-0.43232">
        <ele>74</ele>
        <time>2022-04-06T11:36:07Z</time>
      </trkpt>
      <trkpt lat="49.06231" lon="-0.43252">
        <ele>72</ele>
        <time>2022-04-06T11:36:17Z</time>
      </trkpt>
      <trkpt lat="49.06189" lon="-0.43484">
        <ele>72</ele>
        <time>2022-04-06T11:36:54Z</time>
      </trkpt>
      <trkpt lat="49.06193" lon="-0.43529">
        <ele>71</ele>
        <time>2022-04-06T11:37:01Z</time>
      </trkpt>
      <trkpt lat="49.06173" lon="-0.43641">
        <ele>68</ele>
        <time>2022-04-06T11:37:18Z</time>
      </trkpt>
      <trkpt lat="49.06169" lon="-0.4377">
        <ele>59</ele>
        <time>2022-04-06T11:37:38Z</time>
      </trkpt>
      <trkpt lat="49.06149" lon="-0.43862">
        <ele>51</ele>
        <time>2022-04-06T11:37:53Z</time>
      </trkpt>
      <trkpt lat="49.06147" lon="-0.43936">
        <ele>44</ele>
        <time>2022-04-06T11:38:04Z</time>
      </trkpt>
      <trkpt lat="49.06169" lon="-0.44007">
        <ele>30</ele>
        <time>2022-04-06T11:38:16Z</time>
      </trkpt>
      <trkpt lat="49.06153" lon="-0.4412">
        <ele>31</ele>
        <time>2022-04-06T11:38:34Z</time>
      </trkpt>
      <trkpt lat="49.06147" lon="-0.44268">
        <ele>30</ele>
        <time>2022-04-06T11:38:57Z</time>
      </trkpt>
      <trkpt lat="49.06165" lon="-0.44362">
        <ele>23</ele>
        <time>2022-04-06T11:39:12Z</time>
      </trkpt>
      <trkpt lat="49.06216" lon="-0.44463">
        <ele>24</ele>
        <time>2022-04-06T11:39:31Z</time>
      </trkpt>
      <trkpt lat="49.06136" lon="-0.44458">
        <ele>33</ele>
        <time>2022-04-06T11:39:50Z</time>
      </trkpt>
      <trkpt lat="49.05978" lon="-0.44349">
        <ele>40</ele>
        <time>2022-04-06T11:40:30Z</time>
      </trkpt>
      <trkpt lat="49.05905" lon="-0.44321">
        <ele>43</ele>
        <time>2022-04-06T11:40:48Z</time>
      </trkpt>
      <trkpt lat="49.05826" lon="-0.44346">
        <ele>48</ele>
        <time>2022-04-06T11:41:07Z</time>
      </trkpt>
      <trkpt lat="49.05781" lon="-0.4433">
        <ele>51</ele>
        <time>2022-04-06T11:41:18Z</time>
      </trkpt>
      <trkpt lat="49.05733" lon="-0.44273">
        <ele>50</ele>
        <time>2022-04-06T11:41:32Z</time>
      </trkpt>
      <trkpt lat="49.05691" lon="-0.44201">
        <ele>48</ele>
        <time>2022-04-06T11:41:47Z</time>
      </trkpt>
      <trkpt lat="49.05687" lon="-0.44189">
        <ele>47</ele>
        <time>2022-04-06T11:41:49Z</time>
      </trkpt>
      <trkpt lat="49.05695" lon="-0.44162">
        <ele>47</ele>
        <time>2022-04-06T11:41:53Z</time>
      </trkpt>
      <trkpt lat="49.05702" lon="-0.44097">
        <ele>49</ele>
        <time>2022-04-06T11:42:03Z</time>
      </trkpt>
      <trkpt lat="49.05689" lon="-0.44086">
        <ele>48</ele>
        <time>2022-04-06T11:42:07Z</time>
      </trkpt>
      <trkpt lat="49.05648" lon="-0.44089">
        <ele>49</ele>
        <time>2022-04-06T11:42:16Z</time>
      </trkpt>
      <trkpt lat="49.05612" lon="-0.44079">
        <ele>54</ele>
        <time>2022-04-06T11:42:25Z</time>
      </trkpt>
      <trkpt lat="49.05593" lon="-0.44052">
        <ele>56</ele>
        <time>2022-04-06T11:42:31Z</time>
      </trkpt>
      <trkpt lat="49.05592" lon="-0.44005">
        <ele>55</ele>
        <time>2022-04-06T11:42:38Z</time>
      </trkpt>
      <trkpt lat="49.05562" lon="-0.43941">
        <ele>58</ele>
        <time>2022-04-06T11:42:50Z</time>
      </trkpt>
      <trkpt lat="49.05502" lon="-0.43933">
        <ele>65</ele>
        <time>2022-04-06T11:43:04Z</time>
      </trkpt>
      <trkpt lat="49.05465" lon="-0.43916">
        <ele>67</ele>
        <time>2022-04-06T11:43:13Z</time>
      </trkpt>
      <trkpt lat="49.05421" lon="-0.43877">
        <ele>70</ele>
        <time>2022-04-06T11:43:25Z</time>
      </trkpt>
      <trkpt lat="49.05338" lon="-0.43774">
        <ele>75</ele>
        <time>2022-04-06T11:43:50Z</time>
      </trkpt>
      <trkpt lat="49.05275" lon="-0.43687">
        <ele>73</ele>
        <time>2022-04-06T11:44:10Z</time>
      </trkpt>
      <trkpt lat="49.05251" lon="-0.4363">
        <ele>75</ele>
        <time>2022-04-06T11:44:20Z</time>
      </trkpt>
      <trkpt lat="49.05242" lon="-0.43539">
        <ele>75</ele>
        <time>2022-04-06T11:44:34Z</time>
      </trkpt>
      <trkpt lat="49.05212" lon="-0.43489">
        <ele>76</ele>
        <time>2022-04-06T11:44:45Z</time>
      </trkpt>
      <trkpt lat="49.05224" lon="-0.43438">
        <ele>76</ele>
        <time>2022-04-06T11:44:53Z</time>
      </trkpt>
      <trkpt lat="49.05202" lon="-0.43392">
        <ele>77</ele>
        <time>2022-04-06T11:45:02Z</time>
      </trkpt>
      <trkpt lat="49.05157" lon="-0.43334">
        <ele>78</ele>
        <time>2022-04-06T11:45:15Z</time>
      </trkpt>
      <trkpt lat="49.05043" lon="-0.43301">
        <ele>81</ele>
        <time>2022-04-06T11:45:43Z</time>
      </trkpt>
      <trkpt lat="49.04975" lon="-0.43234">
        <ele>83</ele>
        <time>2022-04-06T11:46:01Z</time>
      </trkpt>
      <trkpt lat="49.04951" lon="-0.43237">
        <ele>85</ele>
        <time>2022-04-06T11:46:07Z</time>
      </trkpt>
      <trkpt lat="49.04891" lon="-0.43127">
        <ele>90</ele>
        <time>2022-04-06T11:46:29Z</time>
      </trkpt>
      <trkpt lat="49.04856" lon="-0.4304">
        <ele>92</ele>
        <time>2022-04-06T11:46:45Z</time>
      </trkpt>
      <trkpt lat="49.04829" lon="-0.42964">
        <ele>95</ele>
        <time>2022-04-06T11:46:58Z</time>
      </trkpt>
      <trkpt lat="49.04819" lon="-0.42928">
        <ele>95</ele>
        <time>2022-04-06T11:47:04Z</time>
      </trkpt>
      <trkpt lat="49.04801" lon="-0.4293">
        <ele>96</ele>
        <time>2022-04-06T11:47:08Z</time>
      </trkpt>
      <trkpt lat="49.04798" lon="-0.42954">
        <ele>96</ele>
        <time>2022-04-06T11:47:12Z</time>
      </trkpt>
      <trkpt lat="49.04806" lon="-0.43081">
        <ele>95</ele>
        <time>2022-04-06T11:47:31Z</time>
      </trkpt>
      <trkpt lat="49.04793" lon="-0.43109">
        <ele>95</ele>
        <time>2022-04-06T11:47:37Z</time>
      </trkpt>
      <trkpt lat="49.04751" lon="-0.43112">
        <ele>97</ele>
        <time>2022-04-06T11:47:46Z</time>
      </trkpt>
      <trkpt lat="49.04727" lon="-0.431">
        <ele>98</ele>
        <time>2022-04-06T11:47:52Z</time>
      </trkpt>
      <trkpt lat="49.04693" lon="-0.4311">
        <ele>100</ele>
        <time>2022-04-06T11:48:00Z</time>
      </trkpt>
      <trkpt lat="49.04652" lon="-0.43099">
        <ele>103</ele>
        <time>2022-04-06T11:48:10Z</time>
      </trkpt>
      <trkpt lat="49.04637" lon="-0.43131">
        <ele>103</ele>
        <time>2022-04-06T11:48:16Z</time>
      </trkpt>
      <trkpt lat="49.04598" lon="-0.43156">
        <ele>104</ele>
        <time>2022-04-06T11:48:26Z</time>
      </trkpt>
      <trkpt lat="49.04591" lon="-0.43233">
        <ele>103</ele>
        <time>2022-04-06T11:48:38Z</time>
      </trkpt>
      <trkpt lat="49.04456" lon="-0.43092">
        <ele>112</ele>
        <time>2022-04-06T11:49:16Z</time>
      </trkpt>
      <trkpt lat="49.04373" lon="-0.43015">
        <ele>118</ele>
        <time>2022-04-06T11:49:39Z</time>
      </trkpt>
      <trkpt lat="49.04366" lon="-0.42979">
        <ele>120</ele>
        <time>2022-04-06T11:49:45Z</time>
      </trkpt>
      <trkpt lat="49.04396" lon="-0.42923">
        <ele>120</ele>
        <time>2022-04-06T11:49:56Z</time>
      </trkpt>
      <trkpt lat="49.0441" lon="-0.42839">
        <ele>121</ele>
        <time>2022-04-06T11:50:09Z</time>
      </trkpt>
      <trkpt lat="49.04381" lon="-0.42762">
        <ele>122</ele>
        <time>2022-04-06T11:50:22Z</time>
      </trkpt>
      <trkpt lat="49.04344" lon="-0.4265">
        <ele>122</ele>
        <time>2022-04-06T11:50:42Z</time>
      </trkpt>
      <trkpt lat="49.04342" lon="-0.42611">
        <ele>122</ele>
        <time>2022-04-06T11:50:48Z</time>
      </trkpt>
      <trkpt lat="49.04435" lon="-0.42572">
        <ele>118</ele>
        <time>2022-04-06T11:51:10Z</time>
      </trkpt>
      <trkpt lat="49.04481" lon="-0.4261">
        <ele>116</ele>
        <time>2022-04-06T11:51:22Z</time>
      </trkpt>
      <trkpt lat="49.04467" lon="-0.42446">
        <ele>116</ele>
        <time>2022-04-06T11:51:48Z</time>
      </trkpt>
      <trkpt lat="49.04446" lon="-0.42143">
        <ele>124</ele>
        <time>2022-04-06T11:52:34Z</time>
      </trkpt>
      <trkpt lat="49.0443" lon="-0.41963">
        <ele>119</ele>
        <time>2022-04-06T11:53:02Z</time>
      </trkpt>
      <trkpt lat="49.0442" lon="-0.4191">
        <ele>117</ele>
        <time>2022-04-06T11:53:11Z</time>
      </trkpt>
      <trkpt lat="49.04381" lon="-0.41887">
        <ele>117</ele>
        <time>2022-04-06T11:53:20Z</time>
      </trkpt>
      <trkpt lat="49.0434" lon="-0.41904">
        <ele>120</ele>
        <time>2022-04-06T11:53:30Z</time>
      </trkpt>
      <trkpt lat="49.043" lon="-0.41888">
        <ele>119</ele>
        <time>2022-04-06T11:53:40Z</time>
      </trkpt>
      <trkpt lat="49.04271" lon="-0.41899">
        <ele>121</ele>
        <time>2022-04-06T11:53:47Z</time>
      </trkpt>
      <trkpt lat="49.04251" lon="-0.41896">
        <ele>121</ele>
        <time>2022-04-06T11:53:52Z</time>
      </trkpt>
      <trkpt lat="49.04243" lon="-0.41917">
        <ele>123</ele>
        <time>2022-04-06T11:53:55Z</time>
      </trkpt>
      <trkpt lat="49.04253" lon="-0.42028">
        <ele>124</ele>
        <time>2022-04-06T11:54:13Z</time>
      </trkpt>
      <trkpt lat="49.04274" lon="-0.42428">
        <ele>124</ele>
        <time>2022-04-06T11:55:14Z</time>
      </trkpt>
      <trkpt lat="49.04254" lon="-0.42413">
        <ele>125</ele>
        <time>2022-04-06T11:55:19Z</time>
      </trkpt>
      <trkpt lat="49.04164" lon="-0.42329">
        <ele>129</ele>
        <time>2022-04-06T11:55:44Z</time>
      </trkpt>
      <trkpt lat="49.04109" lon="-0.42284">
        <ele>130</ele>
        <time>2022-04-06T11:55:58Z</time>
      </trkpt>
      <trkpt lat="49.04108" lon="-0.42312">
        <ele>130</ele>
        <time>2022-04-06T11:56:03Z</time>
      </trkpt>
      <trkpt lat="49.04123" lon="-0.42394">
        <ele>130</ele>
        <time>2022-04-06T11:56:16Z</time>
      </trkpt>
      <trkpt lat="49.04131" lon="-0.42503">
        <ele>130</ele>
        <time>2022-04-06T11:56:32Z</time>
      </trkpt>
      <trkpt lat="49.04148" lon="-0.42551">
        <ele>129</ele>
        <time>2022-04-06T11:56:41Z</time>
      </trkpt>
      <trkpt lat="49.04131" lon="-0.42628">
        <ele>129</ele>
        <time>2022-04-06T11:56:53Z</time>
      </trkpt>
      <trkpt lat="49.04118" lon="-0.42671">
        <ele>129</ele>
        <time>2022-04-06T11:57:01Z</time>
      </trkpt>
      <trkpt lat="49.04103" lon="-0.42631">
        <ele>130</ele>
        <time>2022-04-06T11:57:08Z</time>
      </trkpt>
      <trkpt lat="49.04098" lon="-0.42602">
        <ele>131</ele>
        <time>2022-04-06T11:57:12Z</time>
      </trkpt>
      <trkpt lat="49.04088" lon="-0.4243">
        <ele>130</ele>
        <time>2022-04-06T11:57:39Z</time>
      </trkpt>
      <trkpt lat="49.04074" lon="-0.42256">
        <ele>131</ele>
        <time>2022-04-06T11:58:05Z</time>
      </trkpt>
      <trkpt lat="49.04057" lon="-0.42166">
        <ele>130</ele>
        <time>2022-04-06T11:58:20Z</time>
      </trkpt>
      <trkpt lat="49.04052" lon="-0.42007">
        <ele>126</ele>
        <time>2022-04-06T11:58:44Z</time>
      </trkpt>
      <trkpt lat="49.04017" lon="-0.42001">
        <ele>130</ele>
        <time>2022-04-06T11:58:52Z</time>
      </trkpt>
      <trkpt lat="49.03991" lon="-0.42011">
        <ele>132</ele>
        <time>2022-04-06T11:58:59Z</time>
      </trkpt>
      <trkpt lat="49.03971" lon="-0.42066">
        <ele>132</ele>
        <time>2022-04-06T11:59:08Z</time>
      </trkpt>
      <trkpt lat="49.03948" lon="-0.42048">
        <ele>133</ele>
        <time>2022-04-06T11:59:14Z</time>
      </trkpt>
      <trkpt lat="49.03872" lon="-0.42066">
        <ele>135</ele>
        <time>2022-04-06T11:59:32Z</time>
      </trkpt>
      <trkpt lat="49.03861" lon="-0.42053">
        <ele>136</ele>
        <time>2022-04-06T11:59:35Z</time>
      </trkpt>
      <trkpt lat="49.03862" lon="-0.42133">
        <ele>135</ele>
        <time>2022-04-06T11:59:48Z</time>
      </trkpt>
      <trkpt lat="49.03882" lon="-0.42299">
        <ele>134</ele>
        <time>2022-04-06T12:00:14Z</time>
      </trkpt>
      <trkpt lat="49.03897" lon="-0.42297">
        <ele>133</ele>
        <time>2022-04-06T12:00:17Z</time>
      </trkpt>
      <trkpt lat="49.03879" lon="-0.42332">
        <ele>134</ele>
        <time>2022-04-06T12:00:24Z</time>
      </trkpt>
      <trkpt lat="49.04107" lon="-0.42737">
        <ele>126</ele>
        <time>2022-04-06T12:01:46Z</time>
      </trkpt>
      <trkpt lat="49.04134" lon="-0.42793">
        <ele>125</ele>
        <time>2022-04-06T12:01:56Z</time>
      </trkpt>
      <trkpt lat="49.04198" lon="-0.4289">
        <ele>123</ele>
        <time>2022-04-06T12:02:17Z</time>
      </trkpt>
      <trkpt lat="49.04333" lon="-0.43144">
        <ele>115</ele>
        <time>2022-04-06T12:03:07Z</time>
      </trkpt>
      <trkpt lat="49.04393" lon="-0.43247">
        <ele>109</ele>
        <time>2022-04-06T12:03:28Z</time>
      </trkpt>
      <trkpt lat="49.04422" lon="-0.4329">
        <ele>107</ele>
        <time>2022-04-06T12:03:38Z</time>
      </trkpt>
      <trkpt lat="49.04525" lon="-0.43351">
        <ele>103</ele>
        <time>2022-04-06T12:04:04Z</time>
      </trkpt>
      <trkpt lat="49.04556" lon="-0.43342">
        <ele>102</ele>
        <time>2022-04-06T12:04:11Z</time>
      </trkpt>
      <trkpt lat="49.04667" lon="-0.43438">
        <ele>89</ele>
        <time>2022-04-06T12:04:41Z</time>
      </trkpt>
      <trkpt lat="49.047" lon="-0.43445">
        <ele>88</ele>
        <time>2022-04-06T12:04:49Z</time>
      </trkpt>
      <trkpt lat="49.04734" lon="-0.43476">
        <ele>85</ele>
        <time>2022-04-06T12:04:58Z</time>
      </trkpt>
      <trkpt lat="49.04757" lon="-0.4348">
        <ele>84</ele>
        <time>2022-04-06T12:05:03Z</time>
      </trkpt>
      <trkpt lat="49.04782" lon="-0.43491">
        <ele>83</ele>
        <time>2022-04-06T12:05:09Z</time>
      </trkpt>
      <trkpt lat="49.048" lon="-0.43496">
        <ele>83</ele>
        <time>2022-04-06T12:05:14Z</time>
      </trkpt>
      <trkpt lat="49.04821" lon="-0.4349">
        <ele>83</ele>
        <time>2022-04-06T12:05:19Z</time>
      </trkpt>
      <trkpt lat="49.04843" lon="-0.4347">
        <ele>83</ele>
        <time>2022-04-06T12:05:25Z</time>
      </trkpt>
      <trkpt lat="49.04864" lon="-0.43489">
        <ele>82</ele>
        <time>2022-04-06T12:05:30Z</time>
      </trkpt>
      <trkpt lat="49.04852" lon="-0.43531">
        <ele>81</ele>
        <time>2022-04-06T12:05:37Z</time>
      </trkpt>
      <trkpt lat="49.04829" lon="-0.43545">
        <ele>80</ele>
        <time>2022-04-06T12:05:43Z</time>
      </trkpt>
      <trkpt lat="49.04818" lon="-0.43575">
        <ele>79</ele>
        <time>2022-04-06T12:05:48Z</time>
      </trkpt>
      <trkpt lat="49.04778" lon="-0.43541">
        <ele>81</ele>
        <time>2022-04-06T12:05:59Z</time>
      </trkpt>
      <trkpt lat="49.04735" lon="-0.4354">
        <ele>83</ele>
        <time>2022-04-06T12:06:09Z</time>
      </trkpt>
      <trkpt lat="49.04689" lon="-0.43551">
        <ele>84</ele>
        <time>2022-04-06T12:06:20Z</time>
      </trkpt>
      <trkpt lat="49.0464" lon="-0.43557">
        <ele>85</ele>
        <time>2022-04-06T12:06:32Z</time>
      </trkpt>
      <trkpt lat="49.04608" lon="-0.43575">
        <ele>86</ele>
        <time>2022-04-06T12:06:39Z</time>
      </trkpt>
      <trkpt lat="49.04582" lon="-0.43574">
        <ele>87</ele>
        <time>2022-04-06T12:06:46Z</time>
      </trkpt>
      <trkpt lat="49.04547" lon="-0.43553">
        <ele>89</ele>
        <time>2022-04-06T12:06:54Z</time>
      </trkpt>
      <trkpt lat="49.04519" lon="-0.43524">
        <ele>91</ele>
        <time>2022-04-06T12:07:02Z</time>
      </trkpt>
      <trkpt lat="49.04469" lon="-0.43532">
        <ele>93</ele>
        <time>2022-04-06T12:07:14Z</time>
      </trkpt>
      <trkpt lat="49.04439" lon="-0.4354">
        <ele>94</ele>
        <time>2022-04-06T12:07:21Z</time>
      </trkpt>
      <trkpt lat="49.04412" lon="-0.43543">
        <ele>95</ele>
        <time>2022-04-06T12:07:27Z</time>
      </trkpt>
      <trkpt lat="49.04338" lon="-0.4351">
        <ele>95</ele>
        <time>2022-04-06T12:07:45Z</time>
      </trkpt>
      <trkpt lat="49.04312" lon="-0.43486">
        <ele>96</ele>
        <time>2022-04-06T12:07:53Z</time>
      </trkpt>
      <trkpt lat="49.04277" lon="-0.43435">
        <ele>96</ele>
        <time>2022-04-06T12:08:04Z</time>
      </trkpt>
      <trkpt lat="49.04239" lon="-0.43403">
        <ele>97</ele>
        <time>2022-04-06T12:08:14Z</time>
      </trkpt>
      <trkpt lat="49.04206" lon="-0.43369">
        <ele>99</ele>
        <time>2022-04-06T12:08:23Z</time>
      </trkpt>
      <trkpt lat="49.04176" lon="-0.43346">
        <ele>97</ele>
        <time>2022-04-06T12:08:31Z</time>
      </trkpt>
      <trkpt lat="49.04157" lon="-0.4329">
        <ele>99</ele>
        <time>2022-04-06T12:08:41Z</time>
      </trkpt>
      <trkpt lat="49.04134" lon="-0.43259">
        <ele>100</ele>
        <time>2022-04-06T12:08:48Z</time>
      </trkpt>
      <trkpt lat="49.0412" lon="-0.43223">
        <ele>101</ele>
        <time>2022-04-06T12:08:54Z</time>
      </trkpt>
      <trkpt lat="49.04084" lon="-0.43198">
        <ele>100</ele>
        <time>2022-04-06T12:09:04Z</time>
      </trkpt>
      <trkpt lat="49.04068" lon="-0.43174">
        <ele>102</ele>
        <time>2022-04-06T12:09:09Z</time>
      </trkpt>
      <trkpt lat="49.04057" lon="-0.43139">
        <ele>105</ele>
        <time>2022-04-06T12:09:15Z</time>
      </trkpt>
      <trkpt lat="49.04034" lon="-0.43115">
        <ele>106</ele>
        <time>2022-04-06T12:09:21Z</time>
      </trkpt>
      <trkpt lat="49.03981" lon="-0.43044">
        <ele>107</ele>
        <time>2022-04-06T12:09:38Z</time>
      </trkpt>
      <trkpt lat="49.03915" lon="-0.42953">
        <ele>108</ele>
        <time>2022-04-06T12:09:58Z</time>
      </trkpt>
      <trkpt lat="49.03884" lon="-0.42906">
        <ele>109</ele>
        <time>2022-04-06T12:10:09Z</time>
      </trkpt>
      <trkpt lat="49.03877" lon="-0.4288">
        <ele>110</ele>
        <time>2022-04-06T12:10:13Z</time>
      </trkpt>
      <trkpt lat="49.03865" lon="-0.42854">
        <ele>110</ele>
        <time>2022-04-06T12:10:18Z</time>
      </trkpt>
      <trkpt lat="49.03856" lon="-0.42827">
        <ele>109</ele>
        <time>2022-04-06T12:10:23Z</time>
      </trkpt>
      <trkpt lat="49.03892" lon="-0.42841">
        <ele>112</ele>
        <time>2022-04-06T12:10:31Z</time>
      </trkpt>
      <trkpt lat="49.03924" lon="-0.42846">
        <ele>114</ele>
        <time>2022-04-06T12:10:39Z</time>
      </trkpt>
      <trkpt lat="49.03955" lon="-0.42836">
        <ele>118</ele>
        <time>2022-04-06T12:10:46Z</time>
      </trkpt>
      <trkpt lat="49.03988" lon="-0.42807">
        <ele>122</ele>
        <time>2022-04-06T12:10:55Z</time>
      </trkpt>
      <trkpt lat="49.04056" lon="-0.42763">
        <ele>125</ele>
        <time>2022-04-06T12:11:12Z</time>
      </trkpt>
      <trkpt lat="49.04074" lon="-0.42739">
        <ele>127</ele>
        <time>2022-04-06T12:11:18Z</time>
      </trkpt>
      <trkpt lat="49.04043" lon="-0.42677">
        <ele>130</ele>
        <time>2022-04-06T12:11:30Z</time>
      </trkpt>
      <trkpt lat="49.04018" lon="-0.42649">
        <ele>130</ele>
        <time>2022-04-06T12:11:37Z</time>
      </trkpt>
      <trkpt lat="49.03994" lon="-0.42594">
        <ele>131</ele>
        <time>2022-04-06T12:11:47Z</time>
      </trkpt>
      <trkpt lat="49.03969" lon="-0.42557">
        <ele>130</ele>
        <time>2022-04-06T12:11:55Z</time>
      </trkpt>
      <trkpt lat="49.03873" lon="-0.42384">
        <ele>134</ele>
        <time>2022-04-06T12:12:30Z</time>
      </trkpt>
      <trkpt lat="49.03827" lon="-0.4239">
        <ele>135</ele>
        <time>2022-04-06T12:12:41Z</time>
      </trkpt>
      <trkpt lat="49.03792" lon="-0.42369">
        <ele>136</ele>
        <time>2022-04-06T12:12:50Z</time>
      </trkpt>
      <trkpt lat="49.03684" lon="-0.42434">
        <ele>135</ele>
        <time>2022-04-06T12:13:17Z</time>
      </trkpt>
      <trkpt lat="49.03695" lon="-0.4249">
        <ele>133</ele>
        <time>2022-04-06T12:13:26Z</time>
      </trkpt>
      <trkpt lat="49.03776" lon="-0.42621">
        <ele>126</ele>
        <time>2022-04-06T12:13:53Z</time>
      </trkpt>
      <trkpt lat="49.03816" lon="-0.42696">
        <ele>118</ele>
        <time>2022-04-06T12:14:08Z</time>
      </trkpt>
      <trkpt lat="49.03843" lon="-0.42728">
        <ele>115</ele>
        <time>2022-04-06T12:14:16Z</time>
      </trkpt>
      <trkpt lat="49.0386" lon="-0.42775">
        <ele>113</ele>
        <time>2022-04-06T12:14:24Z</time>
      </trkpt>
      <trkpt lat="49.03881" lon="-0.42807">
        <ele>113</ele>
        <time>2022-04-06T12:14:31Z</time>
      </trkpt>
      <trkpt lat="49.03844" lon="-0.42798">
        <ele>110</ele>
        <time>2022-04-06T12:14:40Z</time>
      </trkpt>
      <trkpt lat="49.03808" lon="-0.42771">
        <ele>111</ele>
        <time>2022-04-06T12:14:49Z</time>
      </trkpt>
      <trkpt lat="49.03714" lon="-0.42767">
        <ele>114</ele>
        <time>2022-04-06T12:15:11Z</time>
      </trkpt>
      <trkpt lat="49.03715" lon="-0.42799">
        <ele>113</ele>
        <time>2022-04-06T12:15:16Z</time>
      </trkpt>
      <trkpt lat="49.03746" lon="-0.42834">
        <ele>110</ele>
        <time>2022-04-06T12:15:25Z</time>
      </trkpt>
      <trkpt lat="49.03688" lon="-0.43326">
        <ele>128</ele>
        <time>2022-04-06T12:16:42Z</time>
      </trkpt>
      <trkpt lat="49.03628" lon="-0.43738">
        <ele>131</ele>
        <time>2022-04-06T12:17:46Z</time>
      </trkpt>
      <trkpt lat="49.0355" lon="-0.4376">
        <ele>136</ele>
        <time>2022-04-06T12:18:05Z</time>
      </trkpt>
      <trkpt lat="49.03522" lon="-0.43756">
        <ele>138</ele>
        <time>2022-04-06T12:18:11Z</time>
      </trkpt>
      <trkpt lat="49.03489" lon="-0.43798">
        <ele>138</ele>
        <time>2022-04-06T12:18:21Z</time>
      </trkpt>
      <trkpt lat="49.03482" lon="-0.43823">
        <ele>138</ele>
        <time>2022-04-06T12:18:26Z</time>
      </trkpt>
      <trkpt lat="49.03456" lon="-0.43845">
        <ele>140</ele>
        <time>2022-04-06T12:18:32Z</time>
      </trkpt>
      <trkpt lat="49.03405" lon="-0.43815">
        <ele>142</ele>
        <time>2022-04-06T12:18:45Z</time>
      </trkpt>
      <trkpt lat="49.0334" lon="-0.43751">
        <ele>144</ele>
        <time>2022-04-06T12:19:03Z</time>
      </trkpt>
      <trkpt lat="49.03317" lon="-0.43956">
        <ele>143</ele>
        <time>2022-04-06T12:19:35Z</time>
      </trkpt>
      <trkpt lat="49.03206" lon="-0.43908">
        <ele>142</ele>
        <time>2022-04-06T12:20:02Z</time>
      </trkpt>
      <trkpt lat="49.03197" lon="-0.44235">
        <ele>144</ele>
        <time>2022-04-06T12:20:52Z</time>
      </trkpt>
      <trkpt lat="49.03188" lon="-0.44384">
        <ele>134</ele>
        <time>2022-04-06T12:21:15Z</time>
      </trkpt>
      <trkpt lat="49.03135" lon="-0.44616">
        <ele>121</ele>
        <time>2022-04-06T12:21:53Z</time>
      </trkpt>
      <trkpt lat="49.03115" lon="-0.44815">
        <ele>113</ele>
        <time>2022-04-06T12:22:24Z</time>
      </trkpt>
      <trkpt lat="49.03121" lon="-0.45109">
        <ele>97</ele>
        <time>2022-04-06T12:23:09Z</time>
      </trkpt>
      <trkpt lat="49.03111" lon="-0.45158">
        <ele>94</ele>
        <time>2022-04-06T12:23:16Z</time>
      </trkpt>
      <trkpt lat="49.0308" lon="-0.45184">
        <ele>94</ele>
        <time>2022-04-06T12:23:25Z</time>
      </trkpt>
      <trkpt lat="49.03049" lon="-0.45172">
        <ele>95</ele>
        <time>2022-04-06T12:23:32Z</time>
      </trkpt>
      <trkpt lat="49.03027" lon="-0.45227">
        <ele>91</ele>
        <time>2022-04-06T12:23:42Z</time>
      </trkpt>
      <trkpt lat="49.03078" lon="-0.45366">
        <ele>84</ele>
        <time>2022-04-06T12:24:06Z</time>
      </trkpt>
      <trkpt lat="49.03116" lon="-0.45509">
        <ele>79</ele>
        <time>2022-04-06T12:24:30Z</time>
      </trkpt>
      <trkpt lat="49.03133" lon="-0.45551">
        <ele>78</ele>
        <time>2022-04-06T12:24:38Z</time>
      </trkpt>
      <trkpt lat="49.03145" lon="-0.45563">
        <ele>77</ele>
        <time>2022-04-06T12:24:41Z</time>
      </trkpt>
      <trkpt lat="49.03162" lon="-0.45615">
        <ele>74</ele>
        <time>2022-04-06T12:24:50Z</time>
      </trkpt>
      <trkpt lat="49.0318" lon="-0.45742">
        <ele>69</ele>
        <time>2022-04-06T12:25:10Z</time>
      </trkpt>
      <trkpt lat="49.03134" lon="-0.45756">
        <ele>71</ele>
        <time>2022-04-06T12:25:21Z</time>
      </trkpt>
      <trkpt lat="49.02997" lon="-0.45787">
        <ele>77</ele>
        <time>2022-04-06T12:25:53Z</time>
      </trkpt>
      <trkpt lat="49.02946" lon="-0.45804">
        <ele>78</ele>
        <time>2022-04-06T12:26:05Z</time>
      </trkpt>
      <trkpt lat="49.02811" lon="-0.45834">
        <ele>73</ele>
        <time>2022-04-06T12:26:37Z</time>
      </trkpt>
      <trkpt lat="49.02749" lon="-0.45855">
        <ele>67</ele>
        <time>2022-04-06T12:26:52Z</time>
      </trkpt>
      <trkpt lat="49.02715" lon="-0.45927">
        <ele>65</ele>
        <time>2022-04-06T12:27:06Z</time>
      </trkpt>
      <trkpt lat="49.0267" lon="-0.46174">
        <ele>52</ele>
        <time>2022-04-06T12:27:45Z</time>
      </trkpt>
      <trkpt lat="49.02666" lon="-0.46217">
        <ele>50</ele>
        <time>2022-04-06T12:27:51Z</time>
      </trkpt>
      <trkpt lat="49.0264" lon="-0.46279">
        <ele>44</ele>
        <time>2022-04-06T12:28:03Z</time>
      </trkpt>
      <trkpt lat="49.02616" lon="-0.46351">
        <ele>37</ele>
        <time>2022-04-06T12:28:15Z</time>
      </trkpt>
      <trkpt lat="49.02602" lon="-0.46363">
        <ele>34</ele>
        <time>2022-04-06T12:28:19Z</time>
      </trkpt>
      <trkpt lat="49.02601" lon="-0.46312">
        <ele>38</ele>
        <time>2022-04-06T12:28:27Z</time>
      </trkpt>
      <trkpt lat="49.02582" lon="-0.46291">
        <ele>37</ele>
        <time>2022-04-06T12:28:32Z</time>
      </trkpt>
      <trkpt lat="49.02541" lon="-0.46195">
        <ele>44</ele>
        <time>2022-04-06T12:28:50Z</time>
      </trkpt>
      <trkpt lat="49.02508" lon="-0.46136">
        <ele>47</ele>
        <time>2022-04-06T12:29:02Z</time>
      </trkpt>
      <trkpt lat="49.02468" lon="-0.46091">
        <ele>50</ele>
        <time>2022-04-06T12:29:13Z</time>
      </trkpt>
      <trkpt lat="49.02434" lon="-0.46079">
        <ele>51</ele>
        <time>2022-04-06T12:29:21Z</time>
      </trkpt>
      <trkpt lat="49.024" lon="-0.46035">
        <ele>55</ele>
        <time>2022-04-06T12:29:32Z</time>
      </trkpt>
      <trkpt lat="49.0236" lon="-0.45971">
        <ele>58</ele>
        <time>2022-04-06T12:29:45Z</time>
      </trkpt>
      <trkpt lat="49.02331" lon="-0.45854">
        <ele>60</ele>
        <time>2022-04-06T12:30:04Z</time>
      </trkpt>
      <trkpt lat="49.02311" lon="-0.45826">
        <ele>63</ele>
        <time>2022-04-06T12:30:11Z</time>
      </trkpt>
      <trkpt lat="49.02303" lon="-0.458">
        <ele>65</ele>
        <time>2022-04-06T12:30:15Z</time>
      </trkpt>
      <trkpt lat="49.02286" lon="-0.45783">
        <ele>66</ele>
        <time>2022-04-06T12:30:20Z</time>
      </trkpt>
      <trkpt lat="49.02274" lon="-0.4574">
        <ele>66</ele>
        <time>2022-04-06T12:30:27Z</time>
      </trkpt>
      <trkpt lat="49.02275" lon="-0.45698">
        <ele>67</ele>
        <time>2022-04-06T12:30:33Z</time>
      </trkpt>
      <trkpt lat="49.02295" lon="-0.4564">
        <ele>72</ele>
        <time>2022-04-06T12:30:43Z</time>
      </trkpt>
      <trkpt lat="49.02295" lon="-0.45562">
        <ele>76</ele>
        <time>2022-04-06T12:30:55Z</time>
      </trkpt>
      <trkpt lat="49.02276" lon="-0.45456">
        <ele>79</ele>
        <time>2022-04-06T12:31:12Z</time>
      </trkpt>
      <trkpt lat="49.02269" lon="-0.45343">
        <ele>81</ele>
        <time>2022-04-06T12:31:30Z</time>
      </trkpt>
      <trkpt lat="49.02253" lon="-0.45263">
        <ele>81</ele>
        <time>2022-04-06T12:31:42Z</time>
      </trkpt>
      <trkpt lat="49.02223" lon="-0.4502">
        <ele>93</ele>
        <time>2022-04-06T12:32:20Z</time>
      </trkpt>
      <trkpt lat="49.02203" lon="-0.45031">
        <ele>92</ele>
        <time>2022-04-06T12:32:25Z</time>
      </trkpt>
      <trkpt lat="49.02203" lon="-0.45058">
        <ele>90</ele>
        <time>2022-04-06T12:32:29Z</time>
      </trkpt>
      <trkpt lat="49.02196" lon="-0.45078">
        <ele>89</ele>
        <time>2022-04-06T12:32:33Z</time>
      </trkpt>
      <trkpt lat="49.02193" lon="-0.45109">
        <ele>89</ele>
        <time>2022-04-06T12:32:38Z</time>
      </trkpt>
      <trkpt lat="49.02057" lon="-0.45078">
        <ele>97</ele>
        <time>2022-04-06T12:33:10Z</time>
      </trkpt>
      <trkpt lat="49.02044" lon="-0.45072">
        <ele>99</ele>
        <time>2022-04-06T12:33:13Z</time>
      </trkpt>
      <trkpt lat="49.01994" lon="-0.44988">
        <ele>101</ele>
        <time>2022-04-06T12:33:30Z</time>
      </trkpt>
      <trkpt lat="49.01985" lon="-0.44962">
        <ele>101</ele>
        <time>2022-04-06T12:33:35Z</time>
      </trkpt>
      <trkpt lat="49.0197" lon="-0.44938">
        <ele>102</ele>
        <time>2022-04-06T12:33:40Z</time>
      </trkpt>
      <trkpt lat="49.01954" lon="-0.44878">
        <ele>103</ele>
        <time>2022-04-06T12:33:50Z</time>
      </trkpt>
      <trkpt lat="49.01932" lon="-0.44717">
        <ele>108</ele>
        <time>2022-04-06T12:34:15Z</time>
      </trkpt>
      <trkpt lat="49.01925" lon="-0.44704">
        <ele>109</ele>
        <time>2022-04-06T12:34:18Z</time>
      </trkpt>
      <trkpt lat="49.01882" lon="-0.447">
        <ele>110</ele>
        <time>2022-04-06T12:34:28Z</time>
      </trkpt>
      <trkpt lat="49.01871" lon="-0.44682">
        <ele>111</ele>
        <time>2022-04-06T12:34:31Z</time>
      </trkpt>
      <trkpt lat="49.0175" lon="-0.44651">
        <ele>113</ele>
        <time>2022-04-06T12:35:00Z</time>
      </trkpt>
      <trkpt lat="49.01675" lon="-0.44663">
        <ele>112</ele>
        <time>2022-04-06T12:35:18Z</time>
      </trkpt>
      <trkpt lat="49.01673" lon="-0.44614">
        <ele>115</ele>
        <time>2022-04-06T12:35:25Z</time>
      </trkpt>
      <trkpt lat="49.01677" lon="-0.44556">
        <ele>118</ele>
        <time>2022-04-06T12:35:34Z</time>
      </trkpt>
      <trkpt lat="49.01614" lon="-0.44459">
        <ele>125</ele>
        <time>2022-04-06T12:35:55Z</time>
      </trkpt>
      <trkpt lat="49.01534" lon="-0.44326">
        <ele>133</ele>
        <time>2022-04-06T12:36:23Z</time>
      </trkpt>
      <trkpt lat="49.0139" lon="-0.43916">
        <ele>148</ele>
        <time>2022-04-06T12:37:34Z</time>
      </trkpt>
      <trkpt lat="49.01282" lon="-0.43721">
        <ele>149</ele>
        <time>2022-04-06T12:38:13Z</time>
      </trkpt>
      <trkpt lat="49.01273" lon="-0.43695">
        <ele>148</ele>
        <time>2022-04-06T12:38:18Z</time>
      </trkpt>
      <trkpt lat="49.01284" lon="-0.43673">
        <ele>147</ele>
        <time>2022-04-06T12:38:22Z</time>
      </trkpt>
      <trkpt lat="49.01339" lon="-0.43652">
        <ele>145</ele>
        <time>2022-04-06T12:38:35Z</time>
      </trkpt>
      <trkpt lat="49.01342" lon="-0.43625">
        <ele>147</ele>
        <time>2022-04-06T12:38:39Z</time>
      </trkpt>
      <trkpt lat="49.01327" lon="-0.43514">
        <ele>155</ele>
        <time>2022-04-06T12:38:57Z</time>
      </trkpt>
      <trkpt lat="49.01318" lon="-0.43392">
        <ele>161</ele>
        <time>2022-04-06T12:39:15Z</time>
      </trkpt>
      <trkpt lat="49.01327" lon="-0.43317">
        <ele>164</ele>
        <time>2022-04-06T12:39:27Z</time>
      </trkpt>
      <trkpt lat="49.01375" lon="-0.43296">
        <ele>167</ele>
        <time>2022-04-06T12:39:39Z</time>
      </trkpt>
      <trkpt lat="49.01401" lon="-0.43264">
        <ele>169</ele>
        <time>2022-04-06T12:39:47Z</time>
      </trkpt>
      <trkpt lat="49.01358" lon="-0.43143">
        <ele>172</ele>
        <time>2022-04-06T12:40:08Z</time>
      </trkpt>
      <trkpt lat="49.01328" lon="-0.43145">
        <ele>172</ele>
        <time>2022-04-06T12:40:15Z</time>
      </trkpt>
      <trkpt lat="49.01298" lon="-0.43089">
        <ele>176</ele>
        <time>2022-04-06T12:40:26Z</time>
      </trkpt>
      <trkpt lat="49.01279" lon="-0.42822">
        <ele>183</ele>
        <time>2022-04-06T12:41:07Z</time>
      </trkpt>
      <trkpt lat="49.01275" lon="-0.42727">
        <ele>184</ele>
        <time>2022-04-06T12:41:21Z</time>
      </trkpt>
      <trkpt lat="49.0126" lon="-0.4263">
        <ele>183</ele>
        <time>2022-04-06T12:41:37Z</time>
      </trkpt>
      <trkpt lat="49.01286" lon="-0.42481">
        <ele>185</ele>
        <time>2022-04-06T12:42:00Z</time>
      </trkpt>
      <trkpt lat="49.01108" lon="-0.42263">
        <ele>183</ele>
        <time>2022-04-06T12:42:54Z</time>
      </trkpt>
      <trkpt lat="49.00976" lon="-0.42086">
        <ele>179</ele>
        <time>2022-04-06T12:43:35Z</time>
      </trkpt>
      <trkpt lat="49.0075" lon="-0.41955">
        <ele>177</ele>
        <time>2022-04-06T12:44:31Z</time>
      </trkpt>
      <trkpt lat="49.00701" lon="-0.41916">
        <ele>178</ele>
        <time>2022-04-06T12:44:44Z</time>
      </trkpt>
      <trkpt lat="49.00787" lon="-0.41544">
        <ele>175</ele>
        <time>2022-04-06T12:45:44Z</time>
      </trkpt>
      <trkpt lat="49.00807" lon="-0.41439">
        <ele>174</ele>
        <time>2022-04-06T12:46:01Z</time>
      </trkpt>
      <trkpt lat="49.00812" lon="-0.41302">
        <ele>173</ele>
        <time>2022-04-06T12:46:22Z</time>
      </trkpt>
      <trkpt lat="49.00816" lon="-0.40883">
        <ele>173</ele>
        <time>2022-04-06T12:47:26Z</time>
      </trkpt>
      <trkpt lat="49.00837" lon="-0.40874">
        <ele>173</ele>
        <time>2022-04-06T12:47:32Z</time>
      </trkpt>
      <trkpt lat="49.00864" lon="-0.40905">
        <ele>174</ele>
        <time>2022-04-06T12:47:39Z</time>
      </trkpt>
      <trkpt lat="49.01011" lon="-0.40879">
        <ele>185</ele>
        <time>2022-04-06T12:48:14Z</time>
      </trkpt>
      <trkpt lat="49.01226" lon="-0.40858">
        <ele>192</ele>
        <time>2022-04-06T12:49:04Z</time>
      </trkpt>
      <trkpt lat="49.01336" lon="-0.40208">
        <ele>190</ele>
        <time>2022-04-06T12:50:47Z</time>
      </trkpt>
      <trkpt lat="49.0141" lon="-0.41069">
        <ele>195</ele>
        <time>2022-04-06T12:53:00Z</time>
      </trkpt>
      <trkpt lat="49.01751" lon="-0.40854">
        <ele>183</ele>
        <time>2022-04-06T12:54:26Z</time>
      </trkpt>
      <trkpt lat="49.01778" lon="-0.41392">
        <ele>186</ele>
        <time>2022-04-06T12:55:49Z</time>
      </trkpt>
      <trkpt lat="49.0183" lon="-0.42564">
        <ele>180</ele>
        <time>2022-04-06T12:58:49Z</time>
      </trkpt>
      <trkpt lat="49.02061" lon="-0.42733">
        <ele>176</ele>
        <time>2022-04-06T12:59:49Z</time>
      </trkpt>
      <trkpt lat="49.02281" lon="-0.42602">
        <ele>172</ele>
        <time>2022-04-06T13:00:44Z</time>
      </trkpt>
      <trkpt lat="49.02276" lon="-0.42585">
        <ele>173</ele>
        <time>2022-04-06T13:00:47Z</time>
      </trkpt>
      <trkpt lat="49.02179" lon="-0.4248">
        <ele>177</ele>
        <time>2022-04-06T13:01:14Z</time>
      </trkpt>
      <trkpt lat="49.02333" lon="-0.41102">
        <ele>165</ele>
        <time>2022-04-06T13:04:49Z</time>
      </trkpt>
      <trkpt lat="49.02345" lon="-0.40324">
        <ele>173</ele>
        <time>2022-04-06T13:06:48Z</time>
      </trkpt>
      <trkpt lat="49.0236" lon="-0.38838">
        <ele>162</ele>
        <time>2022-04-06T13:10:35Z</time>
      </trkpt>
      <trkpt lat="49.02903" lon="-0.3802">
        <ele>145</ele>
        <time>2022-04-06T13:13:34Z</time>
      </trkpt>
      <trkpt lat="49.03136" lon="-0.37659">
        <ele>139</ele>
        <time>2022-04-06T13:14:51Z</time>
      </trkpt>
      <trkpt lat="49.03526" lon="-0.37657">
        <ele>142</ele>
        <time>2022-04-06T13:16:22Z</time>
      </trkpt>
      <trkpt lat="49.03537" lon="-0.37666">
        <ele>142</ele>
        <time>2022-04-06T13:16:25Z</time>
      </trkpt>
      <trkpt lat="49.03529" lon="-0.37769">
        <ele>137</ele>
        <time>2022-04-06T13:16:41Z</time>
      </trkpt>
      <trkpt lat="49.0353" lon="-0.37804">
        <ele>136</ele>
        <time>2022-04-06T13:16:46Z</time>
      </trkpt>
      <trkpt lat="49.03524" lon="-0.37856">
        <ele>134</ele>
        <time>2022-04-06T13:16:54Z</time>
      </trkpt>
      <trkpt lat="49.03566" lon="-0.37917">
        <ele>131</ele>
        <time>2022-04-06T13:17:08Z</time>
      </trkpt>
      <trkpt lat="49.03583" lon="-0.37957">
        <ele>130</ele>
        <time>2022-04-06T13:17:15Z</time>
      </trkpt>
      <trkpt lat="49.03626" lon="-0.37996">
        <ele>130</ele>
        <time>2022-04-06T13:17:27Z</time>
      </trkpt>
      <trkpt lat="49.03704" lon="-0.38058">
        <ele>130</ele>
        <time>2022-04-06T13:17:47Z</time>
      </trkpt>
      <trkpt lat="49.03707" lon="-0.38075">
        <ele>130</ele>
        <time>2022-04-06T13:17:50Z</time>
      </trkpt>
      <trkpt lat="49.03697" lon="-0.3809">
        <ele>129</ele>
        <time>2022-04-06T13:17:53Z</time>
      </trkpt>
      <trkpt lat="49.03677" lon="-0.38144">
        <ele>124</ele>
        <time>2022-04-06T13:18:03Z</time>
      </trkpt>
      <trkpt lat="49.0369" lon="-0.38173">
        <ele>123</ele>
        <time>2022-04-06T13:18:08Z</time>
      </trkpt>
      <trkpt lat="49.03713" lon="-0.38196">
        <ele>122</ele>
        <time>2022-04-06T13:18:15Z</time>
      </trkpt>
      <trkpt lat="49.03748" lon="-0.38224">
        <ele>122</ele>
        <time>2022-04-06T13:18:24Z</time>
      </trkpt>
      <trkpt lat="49.03779" lon="-0.38284">
        <ele>119</ele>
        <time>2022-04-06T13:18:36Z</time>
      </trkpt>
      <trkpt lat="49.03833" lon="-0.38327">
        <ele>119</ele>
        <time>2022-04-06T13:18:50Z</time>
      </trkpt>
      <trkpt lat="49.03905" lon="-0.38365">
        <ele>119</ele>
        <time>2022-04-06T13:19:08Z</time>
      </trkpt>
      <trkpt lat="49.03955" lon="-0.38384">
        <ele>120</ele>
        <time>2022-04-06T13:19:20Z</time>
      </trkpt>
      <trkpt lat="49.03982" lon="-0.38383">
        <ele>121</ele>
        <time>2022-04-06T13:19:26Z</time>
      </trkpt>
      <trkpt lat="49.04008" lon="-0.38409">
        <ele>119</ele>
        <time>2022-04-06T13:19:33Z</time>
      </trkpt>
      <trkpt lat="49.04036" lon="-0.38394">
        <ele>121</ele>
        <time>2022-04-06T13:19:40Z</time>
      </trkpt>
      <trkpt lat="49.04067" lon="-0.38368">
        <ele>123</ele>
        <time>2022-04-06T13:19:48Z</time>
      </trkpt>
      <trkpt lat="49.04096" lon="-0.38366">
        <ele>122</ele>
        <time>2022-04-06T13:19:55Z</time>
      </trkpt>
      <trkpt lat="49.04139" lon="-0.38341">
        <ele>120</ele>
        <time>2022-04-06T13:20:06Z</time>
      </trkpt>
      <trkpt lat="49.04183" lon="-0.38294">
        <ele>119</ele>
        <time>2022-04-06T13:20:19Z</time>
      </trkpt>
      <trkpt lat="49.04233" lon="-0.38223">
        <ele>122</ele>
        <time>2022-04-06T13:20:34Z</time>
      </trkpt>
      <trkpt lat="49.04267" lon="-0.38195">
        <ele>120</ele>
        <time>2022-04-06T13:20:44Z</time>
      </trkpt>
      <trkpt lat="49.04303" lon="-0.38142">
        <ele>118</ele>
        <time>2022-04-06T13:20:55Z</time>
      </trkpt>
      <trkpt lat="49.04326" lon="-0.38118">
        <ele>117</ele>
        <time>2022-04-06T13:21:02Z</time>
      </trkpt>
      <trkpt lat="49.04387" lon="-0.37881">
        <ele>117</ele>
        <time>2022-04-06T13:21:41Z</time>
      </trkpt>
      <trkpt lat="49.04446" lon="-0.37766">
        <ele>120</ele>
        <time>2022-04-06T13:22:03Z</time>
      </trkpt>
      <trkpt lat="49.04516" lon="-0.37543">
        <ele>119</ele>
        <time>2022-04-06T13:22:41Z</time>
      </trkpt>
      <trkpt lat="49.04512" lon="-0.3746">
        <ele>121</ele>
        <time>2022-04-06T13:22:54Z</time>
      </trkpt>
      <trkpt lat="49.04621" lon="-0.37364">
        <ele>114</ele>
        <time>2022-04-06T13:23:23Z</time>
      </trkpt>
      <trkpt lat="49.04674" lon="-0.37311">
        <ele>113</ele>
        <time>2022-04-06T13:23:38Z</time>
      </trkpt>
      <trkpt lat="49.04777" lon="-0.37176">
        <ele>111</ele>
        <time>2022-04-06T13:24:10Z</time>
      </trkpt>
      <trkpt lat="49.04849" lon="-0.37097">
        <ele>111</ele>
        <time>2022-04-06T13:24:30Z</time>
      </trkpt>
      <trkpt lat="49.05099" lon="-0.36913">
        <ele>108</ele>
        <time>2022-04-06T13:25:35Z</time>
      </trkpt>
      <trkpt lat="49.05512" lon="-0.36586">
        <ele>93</ele>
        <time>2022-04-06T13:27:24Z</time>
      </trkpt>
      <trkpt lat="49.05321" lon="-0.36489">
        <ele>99</ele>
        <time>2022-04-06T13:28:11Z</time>
      </trkpt>
      <trkpt lat="49.04997" lon="-0.36305">
        <ele>103</ele>
        <time>2022-04-06T13:29:31Z</time>
      </trkpt>
      <trkpt lat="49.049" lon="-0.36246">
        <ele>108</ele>
        <time>2022-04-06T13:29:56Z</time>
      </trkpt>
      <trkpt lat="49.04813" lon="-0.36203">
        <ele>108</ele>
        <time>2022-04-06T13:30:17Z</time>
      </trkpt>
      <trkpt lat="49.04623" lon="-0.36091">
        <ele>116</ele>
        <time>2022-04-06T13:31:05Z</time>
      </trkpt>
      <trkpt lat="49.04522" lon="-0.36036">
        <ele>118</ele>
        <time>2022-04-06T13:31:30Z</time>
      </trkpt>
      <trkpt lat="49.04394" lon="-0.35961">
        <ele>121</ele>
        <time>2022-04-06T13:32:02Z</time>
      </trkpt>
      <trkpt lat="49.04355" lon="-0.35941">
        <ele>121</ele>
        <time>2022-04-06T13:32:11Z</time>
      </trkpt>
      <trkpt lat="49.0434" lon="-0.3593">
        <ele>122</ele>
        <time>2022-04-06T13:32:15Z</time>
      </trkpt>
      <trkpt lat="49.04216" lon="-0.3434">
        <ele>94</ele>
        <time>2022-04-06T13:36:20Z</time>
      </trkpt>
      <trkpt lat="49.04198" lon="-0.3433">
        <ele>92</ele>
        <time>2022-04-06T13:36:25Z</time>
      </trkpt>
      <trkpt lat="49.04179" lon="-0.34337">
        <ele>91</ele>
        <time>2022-04-06T13:36:29Z</time>
      </trkpt>
      <trkpt lat="49.04156" lon="-0.3437">
        <ele>92</ele>
        <time>2022-04-06T13:36:37Z</time>
      </trkpt>
      <trkpt lat="49.04076" lon="-0.3455">
        <ele>96</ele>
        <time>2022-04-06T13:37:10Z</time>
      </trkpt>
      <trkpt lat="49.04055" lon="-0.34579">
        <ele>98</ele>
        <time>2022-04-06T13:37:17Z</time>
      </trkpt>
      <trkpt lat="49.04039" lon="-0.34569">
        <ele>97</ele>
        <time>2022-04-06T13:37:21Z</time>
      </trkpt>
      <trkpt lat="49.04025" lon="-0.34544">
        <ele>97</ele>
        <time>2022-04-06T13:37:26Z</time>
      </trkpt>
      <trkpt lat="49.04018" lon="-0.34505">
        <ele>96</ele>
        <time>2022-04-06T13:37:32Z</time>
      </trkpt>
      <trkpt lat="49.04036" lon="-0.34454">
        <ele>96</ele>
        <time>2022-04-06T13:37:41Z</time>
      </trkpt>
      <trkpt lat="49.04059" lon="-0.34347">
        <ele>95</ele>
        <time>2022-04-06T13:37:58Z</time>
      </trkpt>
      <trkpt lat="49.04084" lon="-0.34256">
        <ele>97</ele>
        <time>2022-04-06T13:38:13Z</time>
      </trkpt>
      <trkpt lat="49.04196" lon="-0.34083">
        <ele>97</ele>
        <time>2022-04-06T13:38:50Z</time>
      </trkpt>
      <trkpt lat="49.04268" lon="-0.34014">
        <ele>92</ele>
        <time>2022-04-06T13:39:10Z</time>
      </trkpt>
      <trkpt lat="49.04299" lon="-0.33974">
        <ele>91</ele>
        <time>2022-04-06T13:39:20Z</time>
      </trkpt>
      <trkpt lat="49.04378" lon="-0.33893">
        <ele>91</ele>
        <time>2022-04-06T13:39:42Z</time>
      </trkpt>
      <trkpt lat="49.04409" lon="-0.33903">
        <ele>88</ele>
        <time>2022-04-06T13:39:49Z</time>
      </trkpt>
      <trkpt lat="49.04426" lon="-0.33899">
        <ele>86</ele>
        <time>2022-04-06T13:39:53Z</time>
      </trkpt>
      <trkpt lat="49.0444" lon="-0.33877">
        <ele>85</ele>
        <time>2022-04-06T13:39:58Z</time>
      </trkpt>
      <trkpt lat="49.04462" lon="-0.33811">
        <ele>87</ele>
        <time>2022-04-06T13:40:09Z</time>
      </trkpt>
      <trkpt lat="49.0452" lon="-0.33781">
        <ele>80</ele>
        <time>2022-04-06T13:40:24Z</time>
      </trkpt>
      <trkpt lat="49.04422" lon="-0.3364">
        <ele>95</ele>
        <time>2022-04-06T13:40:55Z</time>
      </trkpt>
      <trkpt lat="49.04391" lon="-0.33583">
        <ele>97</ele>
        <time>2022-04-06T13:41:07Z</time>
      </trkpt>
      <trkpt lat="49.0433" lon="-0.33668">
        <ele>99</ele>
        <time>2022-04-06T13:41:26Z</time>
      </trkpt>
      <trkpt lat="49.04266" lon="-0.33706">
        <ele>99</ele>
        <time>2022-04-06T13:41:42Z</time>
      </trkpt>
      <trkpt lat="49.04172" lon="-0.33756">
        <ele>100</ele>
        <time>2022-04-06T13:42:05Z</time>
      </trkpt>
      <trkpt lat="49.0415" lon="-0.33488">
        <ele>102</ele>
        <time>2022-04-06T13:42:46Z</time>
      </trkpt>
      <trkpt lat="49.04129" lon="-0.33424">
        <ele>101</ele>
        <time>2022-04-06T13:42:57Z</time>
      </trkpt>
      <trkpt lat="49.04129" lon="-0.33334">
        <ele>99</ele>
        <time>2022-04-06T13:43:11Z</time>
      </trkpt>
      <trkpt lat="49.04144" lon="-0.33306">
        <ele>98</ele>
        <time>2022-04-06T13:43:17Z</time>
      </trkpt>
      <trkpt lat="49.04168" lon="-0.33285">
        <ele>97</ele>
        <time>2022-04-06T13:43:23Z</time>
      </trkpt>
      <trkpt lat="49.04193" lon="-0.33248">
        <ele>93</ele>
        <time>2022-04-06T13:43:31Z</time>
      </trkpt>
      <trkpt lat="49.04214" lon="-0.3318">
        <ele>89</ele>
        <time>2022-04-06T13:43:43Z</time>
      </trkpt>
      <trkpt lat="49.04222" lon="-0.33171">
        <ele>88</ele>
        <time>2022-04-06T13:43:45Z</time>
      </trkpt>
      <trkpt lat="49.04281" lon="-0.33041">
        <ele>80</ele>
        <time>2022-04-06T13:44:09Z</time>
      </trkpt>
      <trkpt lat="49.04341" lon="-0.32946">
        <ele>69</ele>
        <time>2022-04-06T13:44:30Z</time>
      </trkpt>
      <trkpt lat="49.04355" lon="-0.32911">
        <ele>66</ele>
        <time>2022-04-06T13:44:36Z</time>
      </trkpt>
      <trkpt lat="49.04384" lon="-0.32821">
        <ele>60</ele>
        <time>2022-04-06T13:44:51Z</time>
      </trkpt>
      <trkpt lat="49.04434" lon="-0.32772">
        <ele>57</ele>
        <time>2022-04-06T13:45:05Z</time>
      </trkpt>
      <trkpt lat="49.04484" lon="-0.32767">
        <ele>57</ele>
        <time>2022-04-06T13:45:17Z</time>
      </trkpt>
      <trkpt lat="49.04596" lon="-0.32684">
        <ele>59</ele>
        <time>2022-04-06T13:45:46Z</time>
      </trkpt>
      <trkpt lat="49.04626" lon="-0.32626">
        <ele>62</ele>
        <time>2022-04-06T13:45:57Z</time>
      </trkpt>
      <trkpt lat="49.04731" lon="-0.32529">
        <ele>66</ele>
        <time>2022-04-06T13:46:26Z</time>
      </trkpt>
      <trkpt lat="49.04777" lon="-0.32455">
        <ele>68</ele>
        <time>2022-04-06T13:46:41Z</time>
      </trkpt>
      <trkpt lat="49.04826" lon="-0.32336">
        <ele>70</ele>
        <time>2022-04-06T13:47:03Z</time>
      </trkpt>
      <trkpt lat="49.04938" lon="-0.32173">
        <ele>77</ele>
        <time>2022-04-06T13:47:39Z</time>
      </trkpt>
      <trkpt lat="49.04964" lon="-0.32114">
        <ele>80</ele>
        <time>2022-04-06T13:47:50Z</time>
      </trkpt>
      <trkpt lat="49.04992" lon="-0.32002">
        <ele>75</ele>
        <time>2022-04-06T13:48:08Z</time>
      </trkpt>
      <trkpt lat="49.05058" lon="-0.31879">
        <ele>78</ele>
        <time>2022-04-06T13:48:33Z</time>
      </trkpt>
      <trkpt lat="49.05127" lon="-0.31816">
        <ele>86</ele>
        <time>2022-04-06T13:48:51Z</time>
      </trkpt>
      <trkpt lat="49.05263" lon="-0.31796">
        <ele>92</ele>
        <time>2022-04-06T13:49:23Z</time>
      </trkpt>
      <trkpt lat="49.05337" lon="-0.3175">
        <ele>92</ele>
        <time>2022-04-06T13:49:42Z</time>
      </trkpt>
      <trkpt lat="49.0543" lon="-0.31672">
        <ele>94</ele>
        <time>2022-04-06T13:50:07Z</time>
      </trkpt>
      <trkpt lat="49.05612" lon="-0.31683">
        <ele>96</ele>
        <time>2022-04-06T13:50:49Z</time>
      </trkpt>
      <trkpt lat="49.05781" lon="-0.31652">
        <ele>97</ele>
        <time>2022-04-06T13:51:29Z</time>
      </trkpt>
      <trkpt lat="49.06207" lon="-0.31551">
        <ele>97</ele>
        <time>2022-04-06T13:53:10Z</time>
      </trkpt>
      <trkpt lat="49.06282" lon="-0.31542">
        <ele>96</ele>
        <time>2022-04-06T13:53:27Z</time>
      </trkpt>
      <trkpt lat="49.06539" lon="-0.31607">
        <ele>93</ele>
        <time>2022-04-06T13:54:28Z</time>
      </trkpt>
      <trkpt lat="49.06713" lon="-0.31646">
        <ele>91</ele>
        <time>2022-04-06T13:55:09Z</time>
      </trkpt>
      <trkpt lat="49.06876" lon="-0.31663">
        <ele>90</ele>
        <time>2022-04-06T13:55:47Z</time>
      </trkpt>
      <trkpt lat="49.06901" lon="-0.31659">
        <ele>90</ele>
        <time>2022-04-06T13:55:53Z</time>
      </trkpt>
      <trkpt lat="49.06965" lon="-0.31629">
        <ele>90</ele>
        <time>2022-04-06T13:56:09Z</time>
      </trkpt>
      <trkpt lat="49.07029" lon="-0.31592">
        <ele>91</ele>
        <time>2022-04-06T13:56:25Z</time>
      </trkpt>
      <trkpt lat="49.07132" lon="-0.31557">
        <ele>92</ele>
        <time>2022-04-06T13:56:50Z</time>
      </trkpt>
      <trkpt lat="49.07291" lon="-0.31529">
        <ele>91</ele>
        <time>2022-04-06T13:57:27Z</time>
      </trkpt>
      <trkpt lat="49.07414" lon="-0.31526">
        <ele>90</ele>
        <time>2022-04-06T13:57:56Z</time>
      </trkpt>
      <trkpt lat="49.07479" lon="-0.31527">
        <ele>89</ele>
        <time>2022-04-06T13:58:11Z</time>
      </trkpt>
      <trkpt lat="49.07622" lon="-0.31553">
        <ele>87</ele>
        <time>2022-04-06T13:58:44Z</time>
      </trkpt>
      <trkpt lat="49.07714" lon="-0.31563">
        <ele>85</ele>
        <time>2022-04-06T13:59:06Z</time>
      </trkpt>
      <trkpt lat="49.07945" lon="-0.31543">
        <ele>85</ele>
        <time>2022-04-06T14:00:00Z</time>
      </trkpt>
      <trkpt lat="49.08077" lon="-0.31509">
        <ele>85</ele>
        <time>2022-04-06T14:00:31Z</time>
      </trkpt>
      <trkpt lat="49.08312" lon="-0.31462">
        <ele>82</ele>
        <time>2022-04-06T14:01:27Z</time>
      </trkpt>
      <trkpt lat="49.08377" lon="-0.3146">
        <ele>81</ele>
        <time>2022-04-06T14:01:42Z</time>
      </trkpt>
      <trkpt lat="49.08431" lon="-0.31473">
        <ele>81</ele>
        <time>2022-04-06T14:01:55Z</time>
      </trkpt>
      <trkpt lat="49.0856" lon="-0.31551">
        <ele>80</ele>
        <time>2022-04-06T14:02:27Z</time>
      </trkpt>
      <trkpt lat="49.08611" lon="-0.31571">
        <ele>79</ele>
        <time>2022-04-06T14:02:39Z</time>
      </trkpt>
      <trkpt lat="49.0865" lon="-0.31582">
        <ele>78</ele>
        <time>2022-04-06T14:02:49Z</time>
      </trkpt>
      <trkpt lat="49.08697" lon="-0.31679">
        <ele>76</ele>
        <time>2022-04-06T14:03:07Z</time>
      </trkpt>
      <trkpt lat="49.08751" lon="-0.31818">
        <ele>74</ele>
        <time>2022-04-06T14:03:32Z</time>
      </trkpt>
      <trkpt lat="49.0878" lon="-0.3185">
        <ele>73</ele>
        <time>2022-04-06T14:03:40Z</time>
      </trkpt>
      <trkpt lat="49.08997" lon="-0.32018">
        <ele>77</ele>
        <time>2022-04-06T14:04:37Z</time>
      </trkpt>
      <trkpt lat="49.09121" lon="-0.3211">
        <ele>78</ele>
        <time>2022-04-06T14:05:09Z</time>
      </trkpt>
      <trkpt lat="49.09235" lon="-0.32225">
        <ele>79</ele>
        <time>2022-04-06T14:05:41Z</time>
      </trkpt>
      <trkpt lat="49.09327" lon="-0.32298">
        <ele>80</ele>
        <time>2022-04-06T14:06:05Z</time>
      </trkpt>
      <trkpt lat="49.09411" lon="-0.32298">
        <ele>79</ele>
        <time>2022-04-06T14:06:25Z</time>
      </trkpt>
      <trkpt lat="49.09427" lon="-0.32341">
        <ele>79</ele>
        <time>2022-04-06T14:06:32Z</time>
      </trkpt>
      <trkpt lat="49.09514" lon="-0.32439">
        <ele>78</ele>
        <time>2022-04-06T14:06:58Z</time>
      </trkpt>
      <trkpt lat="49.09532" lon="-0.32416">
        <ele>78</ele>
        <time>2022-04-06T14:07:03Z</time>
      </trkpt>
      <trkpt lat="49.09555" lon="-0.32413">
        <ele>78</ele>
        <time>2022-04-06T14:07:08Z</time>
      </trkpt>
      <trkpt lat="49.09713" lon="-0.32366">
        <ele>75</ele>
        <time>2022-04-06T14:07:46Z</time>
      </trkpt>
      <trkpt lat="49.09849" lon="-0.32313">
        <ele>73</ele>
        <time>2022-04-06T14:08:19Z</time>
      </trkpt>
      <trkpt lat="49.09883" lon="-0.3237">
        <ele>73</ele>
        <time>2022-04-06T14:08:31Z</time>
      </trkpt>
      <trkpt lat="49.09946" lon="-0.33047">
        <ele>66</ele>
        <time>2022-04-06T14:10:15Z</time>
      </trkpt>
      <trkpt lat="49.1014" lon="-0.3306">
        <ele>71</ele>
        <time>2022-04-06T14:11:01Z</time>
      </trkpt>
      <trkpt lat="49.1026" lon="-0.33065">
        <ele>71</ele>
        <time>2022-04-06T14:11:29Z</time>
      </trkpt>
      <trkpt lat="49.10307" lon="-0.33076">
        <ele>70</ele>
        <time>2022-04-06T14:11:40Z</time>
      </trkpt>
      <trkpt lat="49.1031" lon="-0.3309">
        <ele>70</ele>
        <time>2022-04-06T14:11:42Z</time>
      </trkpt>
      <trkpt lat="49.10277" lon="-0.33384">
        <ele>73</ele>
        <time>2022-04-06T14:12:28Z</time>
      </trkpt>
      <trkpt lat="49.10322" lon="-0.33375">
        <ele>73</ele>
        <time>2022-04-06T14:12:38Z</time>
      </trkpt>
      <trkpt lat="49.10921" lon="-0.33284">
        <ele>74</ele>
        <time>2022-04-06T14:14:59Z</time>
      </trkpt>
      <trkpt lat="49.11042" lon="-0.33249">
        <ele>70</ele>
        <time>2022-04-06T14:15:27Z</time>
      </trkpt>
      <trkpt lat="49.11063" lon="-0.33334">
        <ele>71</ele>
        <time>2022-04-06T14:15:41Z</time>
      </trkpt>
      <trkpt lat="49.11102" lon="-0.33328">
        <ele>71</ele>
        <time>2022-04-06T14:15:51Z</time>
      </trkpt>
      <trkpt lat="49.11303" lon="-0.33326">
        <ele>65</ele>
        <time>2022-04-06T14:16:37Z</time>
      </trkpt>
      <trkpt lat="49.11358" lon="-0.33323">
        <ele>63</ele>
        <time>2022-04-06T14:16:50Z</time>
      </trkpt>
      <trkpt lat="49.11619" lon="-0.33415">
        <ele>60</ele>
        <time>2022-04-06T14:17:53Z</time>
      </trkpt>
      <trkpt lat="49.11774" lon="-0.3348">
        <ele>61</ele>
        <time>2022-04-06T14:18:30Z</time>
      </trkpt>
      <trkpt lat="49.12012" lon="-0.33487">
        <ele>58</ele>
        <time>2022-04-06T14:19:26Z</time>
      </trkpt>
      <trkpt lat="49.12085" lon="-0.33487">
        <ele>58</ele>
        <time>2022-04-06T14:19:43Z</time>
      </trkpt>
      <trkpt lat="49.12086" lon="-0.33299">
        <ele>59</ele>
        <time>2022-04-06T14:20:12Z</time>
      </trkpt>
      <trkpt lat="49.12613" lon="-0.33422">
        <ele>50</ele>
        <time>2022-04-06T14:22:16Z</time>
      </trkpt>
      <trkpt lat="49.12709" lon="-0.33476">
        <ele>49</ele>
        <time>2022-04-06T14:22:40Z</time>
      </trkpt>
      <trkpt lat="49.12786" lon="-0.3391">
        <ele>52</ele>
        <time>2022-04-06T14:23:49Z</time>
      </trkpt>
      <trkpt lat="49.12855" lon="-0.34339">
        <ele>54</ele>
        <time>2022-04-06T14:24:56Z</time>
      </trkpt>
      <trkpt lat="49.12935" lon="-0.34718">
        <ele>53</ele>
        <time>2022-04-06T14:25:57Z</time>
      </trkpt>
      <trkpt lat="49.13057" lon="-0.3464">
        <ele>52</ele>
        <time>2022-04-06T14:26:28Z</time>
      </trkpt>
      <trkpt lat="49.13317" lon="-0.349">
        <ele>48</ele>
        <time>2022-04-06T14:27:41Z</time>
      </trkpt>
      <trkpt lat="49.13496" lon="-0.34867">
        <ele>46</ele>
        <time>2022-04-06T14:28:23Z</time>
      </trkpt>
      <trkpt lat="49.13544" lon="-0.34907">
        <ele>45</ele>
        <time>2022-04-06T14:28:36Z</time>
      </trkpt>
      <trkpt lat="49.13568" lon="-0.34956">
        <ele>45</ele>
        <time>2022-04-06T14:28:45Z</time>
      </trkpt>
      <trkpt lat="49.13614" lon="-0.35069">
        <ele>44</ele>
        <time>2022-04-06T14:29:05Z</time>
      </trkpt>
      <trkpt lat="49.13641" lon="-0.35089">
        <ele>45</ele>
        <time>2022-04-06T14:29:12Z</time>
      </trkpt>
      <trkpt lat="49.13714" lon="-0.35068">
        <ele>43</ele>
        <time>2022-04-06T14:29:30Z</time>
      </trkpt>
      <trkpt lat="49.13726" lon="-0.35043">
        <ele>42</ele>
        <time>2022-04-06T14:29:34Z</time>
      </trkpt>
      <trkpt lat="49.13749" lon="-0.35041">
        <ele>41</ele>
        <time>2022-04-06T14:29:40Z</time>
      </trkpt>
      <trkpt lat="49.13847" lon="-0.34992">
        <ele>36</ele>
        <time>2022-04-06T14:30:04Z</time>
      </trkpt>
      <trkpt lat="49.13872" lon="-0.35062">
        <ele>37</ele>
        <time>2022-04-06T14:30:16Z</time>
      </trkpt>
      <trkpt lat="49.13881" lon="-0.35162">
        <ele>37</ele>
        <time>2022-04-06T14:30:31Z</time>
      </trkpt>
      <trkpt lat="49.13888" lon="-0.35173">
        <ele>37</ele>
        <time>2022-04-06T14:30:34Z</time>
      </trkpt>
      <trkpt lat="49.13917" lon="-0.35154">
        <ele>36</ele>
        <time>2022-04-06T14:30:41Z</time>
      </trkpt>
      <trkpt lat="49.13959" lon="-0.35144">
        <ele>35</ele>
        <time>2022-04-06T14:30:51Z</time>
      </trkpt>
      <trkpt lat="49.14112" lon="-0.35151">
        <ele>34</ele>
        <time>2022-04-06T14:31:27Z</time>
      </trkpt>
      <trkpt lat="49.14292" lon="-0.35128">
        <ele>30</ele>
        <time>2022-04-06T14:32:09Z</time>
      </trkpt>
      <trkpt lat="49.14394" lon="-0.35089">
        <ele>29</ele>
        <time>2022-04-06T14:32:34Z</time>
      </trkpt>
      <trkpt lat="49.1442" lon="-0.35085">
        <ele>29</ele>
        <time>2022-04-06T14:32:40Z</time>
      </trkpt>
      <trkpt lat="49.1448" lon="-0.35061">
        <ele>28</ele>
        <time>2022-04-06T14:32:54Z</time>
      </trkpt>
      <trkpt lat="49.14609" lon="-0.35043">
        <ele>25</ele>
        <time>2022-04-06T14:33:24Z</time>
      </trkpt>
      <trkpt lat="49.14632" lon="-0.35032">
        <ele>25</ele>
        <time>2022-04-06T14:33:30Z</time>
      </trkpt>
      <trkpt lat="49.14567" lon="-0.34731">
        <ele>25</ele>
        <time>2022-04-06T14:34:18Z</time>
      </trkpt>
      <trkpt lat="49.14557" lon="-0.34671">
        <ele>24</ele>
        <time>2022-04-06T14:34:28Z</time>
      </trkpt>
      <trkpt lat="49.14696" lon="-0.3459">
        <ele>21</ele>
        <time>2022-04-06T14:35:03Z</time>
      </trkpt>
      <trkpt lat="49.147" lon="-0.34571">
        <ele>21</ele>
        <time>2022-04-06T14:35:06Z</time>
      </trkpt>
      <trkpt lat="49.14718" lon="-0.34563">
        <ele>22</ele>
        <time>2022-04-06T14:35:10Z</time>
      </trkpt>
      <trkpt lat="49.14729" lon="-0.34573">
        <ele>22</ele>
        <time>2022-04-06T14:35:13Z</time>
      </trkpt>
      <trkpt lat="49.14756" lon="-0.34559">
        <ele>23</ele>
        <time>2022-04-06T14:35:20Z</time>
      </trkpt>
      <trkpt lat="49.14848" lon="-0.34526">
        <ele>22</ele>
        <time>2022-04-06T14:35:42Z</time>
      </trkpt>
      <trkpt lat="49.1484" lon="-0.34349">
        <ele>22</ele>
        <time>2022-04-06T14:36:09Z</time>
      </trkpt>
      <trkpt lat="49.14841" lon="-0.34191">
        <ele>25</ele>
        <time>2022-04-06T14:36:33Z</time>
      </trkpt>
      <trkpt lat="49.14845" lon="-0.34099">
        <ele>28</ele>
        <time>2022-04-06T14:36:47Z</time>
      </trkpt>
      <trkpt lat="49.14833" lon="-0.34055">
        <ele>29</ele>
        <time>2022-04-06T14:36:54Z</time>
      </trkpt>
      <trkpt lat="49.14712" lon="-0.33979">
        <ele>33</ele>
        <time>2022-04-06T14:37:25Z</time>
      </trkpt>
      <trkpt lat="49.14691" lon="-0.3398">
        <ele>33</ele>
        <time>2022-04-06T14:37:30Z</time>
      </trkpt>
    </trkseg>
  </trk>
</gpx>